<?xml version="1.0" encoding="UTF-8" standalone="no" ?>
<gpx xmlns="http://www.topografix.com/GPX/1/1" xmlns:gpxtpx="http://www.garmin.com/xmlschemas/TrackPointExtension/v1" creator="OruxMaps v.7.4.22" version="1.1" xmlns:xsi="http://www.w3.org/2001/XMLSchema-instance" xsi:schemaLocation="http://www.topografix.com/GPX/1/1 http://www.topografix.com/GPX/1/1/gpx.xsd">
<metadata>
<name><![CDATA[2021-06-16 14:56]]></name>
<link href="https://www.oruxmaps.com">
<text>OruxMaps</text>
</link>
<time>2021-06-16T12:56:43Z</time><bounds maxlat="49.0439495" maxlon="2.7681853" minlat="49.0244996" minlon="2.7271929"/>
</metadata>
<wpt lat="49.0359774" lon="2.7405642">
<ele>138.62</ele>
<time>2021-06-16T12:56:44Z</time>
<name><![CDATA[0000134]]></name>
<sym>Waypoint</sym>
<type>Point de départ</type>
<extensions>
<om:oruxmapsextensions xmlns:om="http://www.oruxmaps.com/oruxmapsextensions/1/0">
<om:ext type="ICON" subtype="0">38</om:ext>
</om:oruxmapsextensions>
</extensions>
</wpt>
<wpt lat="49.0361073" lon="2.7404528">
<ele>129.37</ele>
<time>2021-06-16T14:51:56Z</time>
<name><![CDATA[0000135]]></name>
<desc><![CDATA[<p><br /><h3>Nom: Segment: 1</h3><br />Heure de départ: 14:56 16 juin 2021<br/>Heure d'arrivée: 16:51 16 juin 2021<br/>Distance: 22,4km (01:54)<br/>Temps déplacement: 01:35<br/>Vitesse moyenne: 11,7 km/h<br/>Vitesse moyenne mouv.: 14,1 km/h<br/>Vitesse Max.: 41,94 km/h<br/>Altitude minimale: 105 m<br/>Altitude maximale: 209 m<br/>Vitesse de montée: 579,8 m/h<br/>Vitesse de descente: -872,7 m/h<br/>Gain d'altitude: 660 m<br/>Perte d'altitude: -672 m<br/>Temps de montée: 01:08<br/>Temps de descente: 00:46<br/></p>]]></desc>
<sym>Waypoint</sym>
<type>Point d'arrivée</type>
<extensions>
<om:oruxmapsextensions xmlns:om="http://www.oruxmaps.com/oruxmapsextensions/1/0">
<om:ext type="ICON" subtype="0">15</om:ext>
</om:oruxmapsextensions>
</extensions>
</wpt>
<trk>
<name><![CDATA[2021-06-16 14:56]]></name>
<desc><![CDATA[<p>Heure de départ: 14:56 16 juin 2021<br/>Heure d'arrivée: 16:51 16 juin 2021<br/>Distance: 22,4 km (01:54)<br/>Temps déplacement: 01:35<br/>Vitesse moyenne: 11,7 km/h<br/>Vitesse moyenne mouv.: 14,11 km/h<br/>Vitesse Max.: 41,94 km/h<br/>Altitude minimale: 105 m<br/>Altitude maximale: 209 m<br/>Vitesse de montée: 467,1 m/h<br/>Vitesse de descente: -576,3 m/h<br/>Gain d'altitude: 478 m<br/>Perte d'altitude: -488 m<br/>Temps de montée: 01:01<br/>Temps de descente: 00:50<br/></p><hr align="center" width="480" style="height: 2px; width: 517px"/>]]></desc>
<type>Indéfini</type>
<extensions>
<om:oruxmapsextensions xmlns:om="http://www.oruxmaps.com/oruxmapsextensions/1/0">
<om:ext type="TYPE" subtype="0">0</om:ext>
<om:ext type="DIFFICULTY">0</om:ext>
</om:oruxmapsextensions>
</extensions>
<trkseg>
<trkpt lat="49.0359774" lon="2.7405642">
<ele>138.62</ele>
<time>2021-06-16T12:56:45Z</time>
</trkpt>
<trkpt lat="49.0361329" lon="2.7403969">
<ele>140.13</ele>
<time>2021-06-16T12:56:51Z</time>
</trkpt>
<trkpt lat="49.0363003" lon="2.7402557">
<ele>136.81</ele>
<time>2021-06-16T12:56:55Z</time>
</trkpt>
<trkpt lat="49.0365256" lon="2.7400889">
<ele>134.66</ele>
<time>2021-06-16T12:56:59Z</time>
</trkpt>
<trkpt lat="49.0367188" lon="2.7399364">
<ele>133.18</ele>
<time>2021-06-16T12:57:02Z</time>
</trkpt>
<trkpt lat="49.0369328" lon="2.7397581">
<ele>131.00</ele>
<time>2021-06-16T12:57:05Z</time>
</trkpt>
<trkpt lat="49.0371617" lon="2.7395581">
<ele>128.95</ele>
<time>2021-06-16T12:57:08Z</time>
</trkpt>
<trkpt lat="49.0373189" lon="2.7394169">
<ele>128.10</ele>
<time>2021-06-16T12:57:10Z</time>
</trkpt>
<trkpt lat="49.0375388" lon="2.7392487">
<ele>126.40</ele>
<time>2021-06-16T12:57:13Z</time>
</trkpt>
<trkpt lat="49.0376957" lon="2.7390885">
<ele>123.95</ele>
<time>2021-06-16T12:57:17Z</time>
</trkpt>
<trkpt lat="49.0375248" lon="2.7389642">
<ele>120.84</ele>
<time>2021-06-16T12:57:34Z</time>
</trkpt>
<trkpt lat="49.0377021" lon="2.7390762">
<ele>122.51</ele>
<time>2021-06-16T12:58:39Z</time>
</trkpt>
<trkpt lat="49.0375664" lon="2.7392587">
<ele>122.34</ele>
<time>2021-06-16T12:59:01Z</time>
</trkpt>
<trkpt lat="49.0373873" lon="2.7393840">
<ele>123.47</ele>
<time>2021-06-16T12:59:06Z</time>
</trkpt>
<trkpt lat="49.0372206" lon="2.7395092">
<ele>124.97</ele>
<time>2021-06-16T12:59:11Z</time>
</trkpt>
<trkpt lat="49.0370369" lon="2.7396704">
<ele>126.12</ele>
<time>2021-06-16T12:59:17Z</time>
</trkpt>
<trkpt lat="49.0368557" lon="2.7398184">
<ele>128.32</ele>
<time>2021-06-16T12:59:23Z</time>
</trkpt>
<trkpt lat="49.0366741" lon="2.7399593">
<ele>128.55</ele>
<time>2021-06-16T12:59:29Z</time>
</trkpt>
<trkpt lat="49.0365043" lon="2.7400822">
<ele>131.11</ele>
<time>2021-06-16T12:59:34Z</time>
</trkpt>
<trkpt lat="49.0363441" lon="2.7402229">
<ele>132.42</ele>
<time>2021-06-16T12:59:39Z</time>
</trkpt>
<trkpt lat="49.0361570" lon="2.7403791">
<ele>133.99</ele>
<time>2021-06-16T12:59:45Z</time>
</trkpt>
<trkpt lat="49.0359937" lon="2.7405275">
<ele>136.40</ele>
<time>2021-06-16T12:59:51Z</time>
</trkpt>
<trkpt lat="49.0358944" lon="2.7407637">
<ele>137.31</ele>
<time>2021-06-16T12:59:57Z</time>
</trkpt>
<trkpt lat="49.0357728" lon="2.7410263">
<ele>139.65</ele>
<time>2021-06-16T13:00:03Z</time>
</trkpt>
<trkpt lat="49.0356632" lon="2.7412859">
<ele>142.51</ele>
<time>2021-06-16T13:00:09Z</time>
</trkpt>
<trkpt lat="49.0355581" lon="2.7415313">
<ele>139.73</ele>
<time>2021-06-16T13:00:16Z</time>
</trkpt>
<trkpt lat="49.0354356" lon="2.7417392">
<ele>144.08</ele>
<time>2021-06-16T13:00:21Z</time>
</trkpt>
<trkpt lat="49.0353242" lon="2.7419753">
<ele>145.89</ele>
<time>2021-06-16T13:00:26Z</time>
</trkpt>
<trkpt lat="49.0352031" lon="2.7422475">
<ele>149.00</ele>
<time>2021-06-16T13:00:32Z</time>
</trkpt>
<trkpt lat="49.0350916" lon="2.7424966">
<ele>149.76</ele>
<time>2021-06-16T13:00:39Z</time>
</trkpt>
<trkpt lat="49.0349246" lon="2.7426637">
<ele>152.77</ele>
<time>2021-06-16T13:00:45Z</time>
</trkpt>
<trkpt lat="49.0347343" lon="2.7427599">
<ele>154.33</ele>
<time>2021-06-16T13:00:51Z</time>
</trkpt>
<trkpt lat="49.0345510" lon="2.7428068">
<ele>155.73</ele>
<time>2021-06-16T13:00:56Z</time>
</trkpt>
<trkpt lat="49.0343678" lon="2.7428270">
<ele>158.30</ele>
<time>2021-06-16T13:01:01Z</time>
</trkpt>
<trkpt lat="49.0341774" lon="2.7428207">
<ele>159.24</ele>
<time>2021-06-16T13:01:07Z</time>
</trkpt>
<trkpt lat="49.0339957" lon="2.7428146">
<ele>160.13</ele>
<time>2021-06-16T13:01:12Z</time>
</trkpt>
<trkpt lat="49.0337898" lon="2.7428658">
<ele>164.11</ele>
<time>2021-06-16T13:01:17Z</time>
</trkpt>
<trkpt lat="49.0336412" lon="2.7430756">
<ele>168.56</ele>
<time>2021-06-16T13:01:22Z</time>
</trkpt>
<trkpt lat="49.0335680" lon="2.7433871">
<ele>166.22</ele>
<time>2021-06-16T13:01:27Z</time>
</trkpt>
<trkpt lat="49.0334849" lon="2.7436601">
<ele>164.75</ele>
<time>2021-06-16T13:01:31Z</time>
</trkpt>
<trkpt lat="49.0333392" lon="2.7438762">
<ele>165.27</ele>
<time>2021-06-16T13:01:35Z</time>
</trkpt>
<trkpt lat="49.0331788" lon="2.7440455">
<ele>163.71</ele>
<time>2021-06-16T13:01:39Z</time>
</trkpt>
<trkpt lat="49.0329979" lon="2.7441484">
<ele>164.58</ele>
<time>2021-06-16T13:01:43Z</time>
</trkpt>
<trkpt lat="49.0328166" lon="2.7443396">
<ele>160.28</ele>
<time>2021-06-16T13:01:49Z</time>
</trkpt>
<trkpt lat="49.0326389" lon="2.7445408">
<ele>161.21</ele>
<time>2021-06-16T13:01:54Z</time>
</trkpt>
<trkpt lat="49.0325213" lon="2.7447857">
<ele>164.73</ele>
<time>2021-06-16T13:01:58Z</time>
</trkpt>
<trkpt lat="49.0323964" lon="2.7450314">
<ele>166.41</ele>
<time>2021-06-16T13:02:05Z</time>
</trkpt>
<trkpt lat="49.0322717" lon="2.7452381">
<ele>161.32</ele>
<time>2021-06-16T13:02:12Z</time>
</trkpt>
<trkpt lat="49.0320974" lon="2.7450895">
<ele>149.18</ele>
<time>2021-06-16T13:02:31Z</time>
</trkpt>
<trkpt lat="49.0319504" lon="2.7449003">
<ele>146.86</ele>
<time>2021-06-16T13:02:37Z</time>
</trkpt>
<trkpt lat="49.0317812" lon="2.7447010">
<ele>147.29</ele>
<time>2021-06-16T13:02:42Z</time>
</trkpt>
<trkpt lat="49.0315868" lon="2.7445088">
<ele>146.91</ele>
<time>2021-06-16T13:02:45Z</time>
</trkpt>
<trkpt lat="49.0313876" lon="2.7442299">
<ele>144.78</ele>
<time>2021-06-16T13:02:48Z</time>
</trkpt>
<trkpt lat="49.0312198" lon="2.7440153">
<ele>142.86</ele>
<time>2021-06-16T13:02:50Z</time>
</trkpt>
<trkpt lat="49.0310724" lon="2.7438282">
<ele>141.41</ele>
<time>2021-06-16T13:02:52Z</time>
</trkpt>
<trkpt lat="49.0309142" lon="2.7435394">
<ele>140.07</ele>
<time>2021-06-16T13:02:55Z</time>
</trkpt>
<trkpt lat="49.0307805" lon="2.7433340">
<ele>139.24</ele>
<time>2021-06-16T13:02:57Z</time>
</trkpt>
<trkpt lat="49.0306413" lon="2.7431392">
<ele>138.00</ele>
<time>2021-06-16T13:02:59Z</time>
</trkpt>
<trkpt lat="49.0304656" lon="2.7430709">
<ele>134.24</ele>
<time>2021-06-16T13:03:02Z</time>
</trkpt>
<trkpt lat="49.0303199" lon="2.7432586">
<ele>126.54</ele>
<time>2021-06-16T13:03:08Z</time>
</trkpt>
<trkpt lat="49.0302066" lon="2.7434905">
<ele>122.88</ele>
<time>2021-06-16T13:03:12Z</time>
</trkpt>
<trkpt lat="49.0300664" lon="2.7437224">
<ele>120.74</ele>
<time>2021-06-16T13:03:17Z</time>
</trkpt>
<trkpt lat="49.0299424" lon="2.7439905">
<ele>120.31</ele>
<time>2021-06-16T13:03:22Z</time>
</trkpt>
<trkpt lat="49.0298313" lon="2.7442582">
<ele>121.38</ele>
<time>2021-06-16T13:03:28Z</time>
</trkpt>
<trkpt lat="49.0297349" lon="2.7445021">
<ele>125.29</ele>
<time>2021-06-16T13:03:34Z</time>
</trkpt>
<trkpt lat="49.0296172" lon="2.7447437">
<ele>129.47</ele>
<time>2021-06-16T13:03:41Z</time>
</trkpt>
<trkpt lat="49.0295280" lon="2.7450003">
<ele>130.31</ele>
<time>2021-06-16T13:03:47Z</time>
</trkpt>
<trkpt lat="49.0294102" lon="2.7452333">
<ele>132.78</ele>
<time>2021-06-16T13:03:53Z</time>
</trkpt>
<trkpt lat="49.0292964" lon="2.7454574">
<ele>136.74</ele>
<time>2021-06-16T13:04:00Z</time>
</trkpt>
<trkpt lat="49.0291522" lon="2.7456842">
<ele>138.44</ele>
<time>2021-06-16T13:04:06Z</time>
</trkpt>
<trkpt lat="49.0291120" lon="2.7459596">
<ele>142.78</ele>
<time>2021-06-16T13:04:12Z</time>
</trkpt>
<trkpt lat="49.0290978" lon="2.7462572">
<ele>142.21</ele>
<time>2021-06-16T13:04:18Z</time>
</trkpt>
<trkpt lat="49.0290932" lon="2.7465471">
<ele>141.89</ele>
<time>2021-06-16T13:04:24Z</time>
</trkpt>
<trkpt lat="49.0290445" lon="2.7468496">
<ele>145.05</ele>
<time>2021-06-16T13:04:30Z</time>
</trkpt>
<trkpt lat="49.0289876" lon="2.7471282">
<ele>149.45</ele>
<time>2021-06-16T13:04:36Z</time>
</trkpt>
<trkpt lat="49.0288898" lon="2.7473903">
<ele>149.48</ele>
<time>2021-06-16T13:04:43Z</time>
</trkpt>
<trkpt lat="49.0287710" lon="2.7476014">
<ele>150.16</ele>
<time>2021-06-16T13:04:49Z</time>
</trkpt>
<trkpt lat="49.0287461" lon="2.7478950">
<ele>153.73</ele>
<time>2021-06-16T13:05:02Z</time>
</trkpt>
<trkpt lat="49.0287002" lon="2.7481608">
<ele>155.35</ele>
<time>2021-06-16T13:05:09Z</time>
</trkpt>
<trkpt lat="49.0286343" lon="2.7484428">
<ele>156.62</ele>
<time>2021-06-16T13:05:15Z</time>
</trkpt>
<trkpt lat="49.0285477" lon="2.7487072">
<ele>157.89</ele>
<time>2021-06-16T13:05:21Z</time>
</trkpt>
<trkpt lat="49.0284069" lon="2.7489556">
<ele>156.50</ele>
<time>2021-06-16T13:05:27Z</time>
</trkpt>
<trkpt lat="49.0282206" lon="2.7491505">
<ele>153.67</ele>
<time>2021-06-16T13:05:31Z</time>
</trkpt>
<trkpt lat="49.0280520" lon="2.7492909">
<ele>157.83</ele>
<time>2021-06-16T13:05:34Z</time>
</trkpt>
<trkpt lat="49.0278854" lon="2.7494221">
<ele>157.31</ele>
<time>2021-06-16T13:05:37Z</time>
</trkpt>
<trkpt lat="49.0276880" lon="2.7495835">
<ele>156.27</ele>
<time>2021-06-16T13:05:40Z</time>
</trkpt>
<trkpt lat="49.0275023" lon="2.7497250">
<ele>154.72</ele>
<time>2021-06-16T13:05:43Z</time>
</trkpt>
<trkpt lat="49.0273445" lon="2.7498623">
<ele>154.38</ele>
<time>2021-06-16T13:05:47Z</time>
</trkpt>
<trkpt lat="49.0271859" lon="2.7499983">
<ele>153.57</ele>
<time>2021-06-16T13:05:51Z</time>
</trkpt>
<trkpt lat="49.0270251" lon="2.7501440">
<ele>150.73</ele>
<time>2021-06-16T13:05:54Z</time>
</trkpt>
<trkpt lat="49.0268520" lon="2.7502976">
<ele>148.93</ele>
<time>2021-06-16T13:05:57Z</time>
</trkpt>
<trkpt lat="49.0266798" lon="2.7503782">
<ele>145.60</ele>
<time>2021-06-16T13:06:03Z</time>
</trkpt>
<trkpt lat="49.0266014" lon="2.7506265">
<ele>145.84</ele>
<time>2021-06-16T13:06:11Z</time>
</trkpt>
<trkpt lat="49.0265429" lon="2.7508936">
<ele>145.59</ele>
<time>2021-06-16T13:06:19Z</time>
</trkpt>
<trkpt lat="49.0264648" lon="2.7511882">
<ele>147.52</ele>
<time>2021-06-16T13:07:17Z</time>
</trkpt>
<trkpt lat="49.0263983" lon="2.7514498">
<ele>146.84</ele>
<time>2021-06-16T13:07:23Z</time>
</trkpt>
<trkpt lat="49.0265517" lon="2.7512759">
<ele>147.95</ele>
<time>2021-06-16T13:09:59Z</time>
</trkpt>
<trkpt lat="49.0266069" lon="2.7509976">
<ele>146.43</ele>
<time>2021-06-16T13:10:05Z</time>
</trkpt>
<trkpt lat="49.0266649" lon="2.7507090">
<ele>145.60</ele>
<time>2021-06-16T13:10:10Z</time>
</trkpt>
<trkpt lat="49.0267561" lon="2.7504332">
<ele>145.31</ele>
<time>2021-06-16T13:10:15Z</time>
</trkpt>
<trkpt lat="49.0269355" lon="2.7503085">
<ele>144.90</ele>
<time>2021-06-16T13:10:21Z</time>
</trkpt>
<trkpt lat="49.0271064" lon="2.7501697">
<ele>145.23</ele>
<time>2021-06-16T13:10:27Z</time>
</trkpt>
<trkpt lat="49.0272798" lon="2.7500190">
<ele>146.81</ele>
<time>2021-06-16T13:10:33Z</time>
</trkpt>
<trkpt lat="49.0274515" lon="2.7498527">
<ele>148.70</ele>
<time>2021-06-16T13:10:39Z</time>
</trkpt>
<trkpt lat="49.0276187" lon="2.7497009">
<ele>149.81</ele>
<time>2021-06-16T13:10:44Z</time>
</trkpt>
<trkpt lat="49.0278010" lon="2.7495351">
<ele>152.78</ele>
<time>2021-06-16T13:10:50Z</time>
</trkpt>
<trkpt lat="49.0279704" lon="2.7493992">
<ele>154.49</ele>
<time>2021-06-16T13:10:55Z</time>
</trkpt>
<trkpt lat="49.0281745" lon="2.7492649">
<ele>155.05</ele>
<time>2021-06-16T13:11:00Z</time>
</trkpt>
<trkpt lat="49.0283456" lon="2.7491073">
<ele>155.98</ele>
<time>2021-06-16T13:11:05Z</time>
</trkpt>
<trkpt lat="49.0285095" lon="2.7489825">
<ele>156.83</ele>
<time>2021-06-16T13:11:11Z</time>
</trkpt>
<trkpt lat="49.0285543" lon="2.7492509">
<ele>161.43</ele>
<time>2021-06-16T13:11:18Z</time>
</trkpt>
<trkpt lat="49.0286144" lon="2.7495367">
<ele>162.83</ele>
<time>2021-06-16T13:11:24Z</time>
</trkpt>
<trkpt lat="49.0286601" lon="2.7498255">
<ele>165.95</ele>
<time>2021-06-16T13:11:36Z</time>
</trkpt>
<trkpt lat="49.0286590" lon="2.7501045">
<ele>168.61</ele>
<time>2021-06-16T13:11:42Z</time>
</trkpt>
<trkpt lat="49.0286534" lon="2.7503819">
<ele>171.69</ele>
<time>2021-06-16T13:11:48Z</time>
</trkpt>
<trkpt lat="49.0286652" lon="2.7506709">
<ele>173.54</ele>
<time>2021-06-16T13:11:55Z</time>
</trkpt>
<trkpt lat="49.0286375" lon="2.7509476">
<ele>175.58</ele>
<time>2021-06-16T13:12:02Z</time>
</trkpt>
<trkpt lat="49.0286471" lon="2.7512217">
<ele>178.92</ele>
<time>2021-06-16T13:12:08Z</time>
</trkpt>
<trkpt lat="49.0286365" lon="2.7515346">
<ele>181.54</ele>
<time>2021-06-16T13:12:15Z</time>
</trkpt>
<trkpt lat="49.0286286" lon="2.7518679">
<ele>181.17</ele>
<time>2021-06-16T13:12:22Z</time>
</trkpt>
<trkpt lat="49.0286432" lon="2.7521934">
<ele>181.89</ele>
<time>2021-06-16T13:12:28Z</time>
</trkpt>
<trkpt lat="49.0287179" lon="2.7524530">
<ele>183.11</ele>
<time>2021-06-16T13:12:34Z</time>
</trkpt>
<trkpt lat="49.0287744" lon="2.7527608">
<ele>183.23</ele>
<time>2021-06-16T13:12:40Z</time>
</trkpt>
<trkpt lat="49.0287851" lon="2.7530648">
<ele>183.12</ele>
<time>2021-06-16T13:12:45Z</time>
</trkpt>
<trkpt lat="49.0287888" lon="2.7533864">
<ele>184.97</ele>
<time>2021-06-16T13:12:50Z</time>
</trkpt>
<trkpt lat="49.0287677" lon="2.7537022">
<ele>186.93</ele>
<time>2021-06-16T13:12:56Z</time>
</trkpt>
<trkpt lat="49.0287672" lon="2.7539877">
<ele>187.62</ele>
<time>2021-06-16T13:13:02Z</time>
</trkpt>
<trkpt lat="49.0287976" lon="2.7542800">
<ele>186.92</ele>
<time>2021-06-16T13:13:09Z</time>
</trkpt>
<trkpt lat="49.0286377" lon="2.7544076">
<ele>189.48</ele>
<time>2021-06-16T13:13:21Z</time>
</trkpt>
<trkpt lat="49.0284710" lon="2.7545267">
<ele>190.01</ele>
<time>2021-06-16T13:13:25Z</time>
</trkpt>
<trkpt lat="49.0283809" lon="2.7547964">
<ele>191.95</ele>
<time>2021-06-16T13:13:30Z</time>
</trkpt>
<trkpt lat="49.0283005" lon="2.7550620">
<ele>191.02</ele>
<time>2021-06-16T13:13:34Z</time>
</trkpt>
<trkpt lat="49.0281509" lon="2.7553399">
<ele>188.21</ele>
<time>2021-06-16T13:13:39Z</time>
</trkpt>
<trkpt lat="49.0280501" lon="2.7556154">
<ele>189.87</ele>
<time>2021-06-16T13:13:45Z</time>
</trkpt>
<trkpt lat="49.0280390" lon="2.7559040">
<ele>184.85</ele>
<time>2021-06-16T13:13:52Z</time>
</trkpt>
<trkpt lat="49.0279709" lon="2.7562105">
<ele>186.19</ele>
<time>2021-06-16T13:14:01Z</time>
</trkpt>
<trkpt lat="49.0278416" lon="2.7564746">
<ele>187.56</ele>
<time>2021-06-16T13:14:05Z</time>
</trkpt>
<trkpt lat="49.0277164" lon="2.7567069">
<ele>187.22</ele>
<time>2021-06-16T13:14:09Z</time>
</trkpt>
<trkpt lat="49.0278271" lon="2.7569511">
<ele>186.07</ele>
<time>2021-06-16T13:14:15Z</time>
</trkpt>
<trkpt lat="49.0278850" lon="2.7572495">
<ele>189.21</ele>
<time>2021-06-16T13:14:23Z</time>
</trkpt>
<trkpt lat="49.0279460" lon="2.7575500">
<ele>188.76</ele>
<time>2021-06-16T13:14:28Z</time>
</trkpt>
<trkpt lat="49.0279436" lon="2.7578308">
<ele>186.95</ele>
<time>2021-06-16T13:14:33Z</time>
</trkpt>
<trkpt lat="49.0279621" lon="2.7581618">
<ele>184.94</ele>
<time>2021-06-16T13:14:42Z</time>
</trkpt>
<trkpt lat="49.0279728" lon="2.7584486">
<ele>186.62</ele>
<time>2021-06-16T13:14:47Z</time>
</trkpt>
<trkpt lat="49.0279388" lon="2.7588221">
<ele>190.48</ele>
<time>2021-06-16T13:14:51Z</time>
</trkpt>
<trkpt lat="49.0278604" lon="2.7590928">
<ele>187.38</ele>
<time>2021-06-16T13:14:55Z</time>
</trkpt>
<trkpt lat="49.0277718" lon="2.7593993">
<ele>195.35</ele>
<time>2021-06-16T13:15:01Z</time>
</trkpt>
<trkpt lat="49.0276953" lon="2.7596490">
<ele>196.90</ele>
<time>2021-06-16T13:15:04Z</time>
</trkpt>
<trkpt lat="49.0278485" lon="2.7599034">
<ele>195.11</ele>
<time>2021-06-16T13:15:07Z</time>
</trkpt>
<trkpt lat="49.0278137" lon="2.7602469">
<ele>189.65</ele>
<time>2021-06-16T13:15:15Z</time>
</trkpt>
<trkpt lat="49.0277699" lon="2.7606640">
<ele>190.52</ele>
<time>2021-06-16T13:15:17Z</time>
</trkpt>
<trkpt lat="49.0278227" lon="2.7609640">
<ele>189.13</ele>
<time>2021-06-16T13:15:20Z</time>
</trkpt>
<trkpt lat="49.0277893" lon="2.7612998">
<ele>189.17</ele>
<time>2021-06-16T13:15:23Z</time>
</trkpt>
<trkpt lat="49.0278053" lon="2.7616477">
<ele>188.81</ele>
<time>2021-06-16T13:15:27Z</time>
</trkpt>
<trkpt lat="49.0278635" lon="2.7619203">
<ele>188.08</ele>
<time>2021-06-16T13:15:30Z</time>
</trkpt>
<trkpt lat="49.0279618" lon="2.7621503">
<ele>186.13</ele>
<time>2021-06-16T13:15:34Z</time>
</trkpt>
<trkpt lat="49.0281448" lon="2.7625815">
<ele>186.97</ele>
<time>2021-06-16T13:15:38Z</time>
</trkpt>
<trkpt lat="49.0281572" lon="2.7628859">
<ele>184.75</ele>
<time>2021-06-16T13:15:41Z</time>
</trkpt>
<trkpt lat="49.0280871" lon="2.7631386">
<ele>183.58</ele>
<time>2021-06-16T13:15:46Z</time>
</trkpt>
<trkpt lat="49.0281361" lon="2.7635312">
<ele>187.68</ele>
<time>2021-06-16T13:16:36Z</time>
</trkpt>
<trkpt lat="49.0280131" lon="2.7637468">
<ele>189.37</ele>
<time>2021-06-16T13:17:01Z</time>
</trkpt>
<trkpt lat="49.0279026" lon="2.7640230">
<ele>185.07</ele>
<time>2021-06-16T13:17:06Z</time>
</trkpt>
<trkpt lat="49.0277179" lon="2.7641576">
<ele>181.05</ele>
<time>2021-06-16T13:17:11Z</time>
</trkpt>
<trkpt lat="49.0275341" lon="2.7642244">
<ele>183.55</ele>
<time>2021-06-16T13:17:16Z</time>
</trkpt>
<trkpt lat="49.0273843" lon="2.7643929">
<ele>186.39</ele>
<time>2021-06-16T13:17:22Z</time>
</trkpt>
<trkpt lat="49.0272668" lon="2.7646060">
<ele>185.55</ele>
<time>2021-06-16T13:17:28Z</time>
</trkpt>
<trkpt lat="49.0272056" lon="2.7648700">
<ele>185.69</ele>
<time>2021-06-16T13:17:33Z</time>
</trkpt>
<trkpt lat="49.0271619" lon="2.7651480">
<ele>186.12</ele>
<time>2021-06-16T13:17:40Z</time>
</trkpt>
<trkpt lat="49.0270886" lon="2.7654250">
<ele>184.96</ele>
<time>2021-06-16T13:17:46Z</time>
</trkpt>
<trkpt lat="49.0271364" lon="2.7657091">
<ele>182.97</ele>
<time>2021-06-16T13:17:50Z</time>
</trkpt>
<trkpt lat="49.0272052" lon="2.7660910">
<ele>182.00</ele>
<time>2021-06-16T13:17:54Z</time>
</trkpt>
<trkpt lat="49.0272237" lon="2.7664549">
<ele>179.25</ele>
<time>2021-06-16T13:17:57Z</time>
</trkpt>
<trkpt lat="49.0271848" lon="2.7668013">
<ele>179.87</ele>
<time>2021-06-16T13:18:00Z</time>
</trkpt>
<trkpt lat="49.0271113" lon="2.7671350">
<ele>176.54</ele>
<time>2021-06-16T13:18:03Z</time>
</trkpt>
<trkpt lat="49.0270636" lon="2.7675031">
<ele>174.48</ele>
<time>2021-06-16T13:18:06Z</time>
</trkpt>
<trkpt lat="49.0270662" lon="2.7678644">
<ele>173.16</ele>
<time>2021-06-16T13:18:09Z</time>
</trkpt>
<trkpt lat="49.0270612" lon="2.7681853">
<ele>174.37</ele>
<time>2021-06-16T13:18:13Z</time>
</trkpt>
<trkpt lat="49.0268960" lon="2.7680341">
<ele>174.67</ele>
<time>2021-06-16T13:18:41Z</time>
</trkpt>
<trkpt lat="49.0266997" lon="2.7678333">
<ele>177.35</ele>
<time>2021-06-16T13:18:46Z</time>
</trkpt>
<trkpt lat="49.0265546" lon="2.7675972">
<ele>179.73</ele>
<time>2021-06-16T13:18:52Z</time>
</trkpt>
<trkpt lat="49.0264013" lon="2.7673875">
<ele>178.54</ele>
<time>2021-06-16T13:18:57Z</time>
</trkpt>
<trkpt lat="49.0262709" lon="2.7671465">
<ele>178.84</ele>
<time>2021-06-16T13:19:02Z</time>
</trkpt>
<trkpt lat="49.0260887" lon="2.7670116">
<ele>182.16</ele>
<time>2021-06-16T13:19:07Z</time>
</trkpt>
<trkpt lat="49.0258932" lon="2.7669389">
<ele>185.93</ele>
<time>2021-06-16T13:19:13Z</time>
</trkpt>
<trkpt lat="49.0257084" lon="2.7668079">
<ele>185.73</ele>
<time>2021-06-16T13:19:18Z</time>
</trkpt>
<trkpt lat="49.0255054" lon="2.7666829">
<ele>185.47</ele>
<time>2021-06-16T13:19:21Z</time>
</trkpt>
<trkpt lat="49.0253053" lon="2.7664801">
<ele>180.28</ele>
<time>2021-06-16T13:19:24Z</time>
</trkpt>
<trkpt lat="49.0251501" lon="2.7662714">
<ele>178.13</ele>
<time>2021-06-16T13:19:26Z</time>
</trkpt>
<trkpt lat="49.0249774" lon="2.7660561">
<ele>174.14</ele>
<time>2021-06-16T13:19:30Z</time>
</trkpt>
<trkpt lat="49.0248143" lon="2.7658083">
<ele>169.19</ele>
<time>2021-06-16T13:19:33Z</time>
</trkpt>
<trkpt lat="49.0246720" lon="2.7655344">
<ele>168.64</ele>
<time>2021-06-16T13:19:36Z</time>
</trkpt>
<trkpt lat="49.0244996" lon="2.7652958">
<ele>168.20</ele>
<time>2021-06-16T13:19:39Z</time>
</trkpt>
<trkpt lat="49.0245097" lon="2.7650171">
<ele>170.39</ele>
<time>2021-06-16T13:19:53Z</time>
</trkpt>
<trkpt lat="49.0246716" lon="2.7647864">
<ele>170.04</ele>
<time>2021-06-16T13:19:59Z</time>
</trkpt>
<trkpt lat="49.0247759" lon="2.7645369">
<ele>168.52</ele>
<time>2021-06-16T13:20:03Z</time>
</trkpt>
<trkpt lat="49.0248774" lon="2.7642489">
<ele>168.77</ele>
<time>2021-06-16T13:20:07Z</time>
</trkpt>
<trkpt lat="49.0249639" lon="2.7639924">
<ele>165.88</ele>
<time>2021-06-16T13:20:10Z</time>
</trkpt>
<trkpt lat="49.0250343" lon="2.7637042">
<ele>162.37</ele>
<time>2021-06-16T13:20:16Z</time>
</trkpt>
<trkpt lat="49.0250341" lon="2.7634006">
<ele>158.95</ele>
<time>2021-06-16T13:20:26Z</time>
</trkpt>
<trkpt lat="49.0250334" lon="2.7631048">
<ele>159.34</ele>
<time>2021-06-16T13:20:31Z</time>
</trkpt>
<trkpt lat="49.0250931" lon="2.7628307">
<ele>159.97</ele>
<time>2021-06-16T13:20:34Z</time>
</trkpt>
<trkpt lat="49.0251935" lon="2.7626022">
<ele>161.16</ele>
<time>2021-06-16T13:20:38Z</time>
</trkpt>
<trkpt lat="49.0253035" lon="2.7623746">
<ele>163.04</ele>
<time>2021-06-16T13:20:44Z</time>
</trkpt>
<trkpt lat="49.0254238" lon="2.7621353">
<ele>166.85</ele>
<time>2021-06-16T13:20:50Z</time>
</trkpt>
<trkpt lat="49.0254724" lon="2.7618263">
<ele>164.60</ele>
<time>2021-06-16T13:21:04Z</time>
</trkpt>
<trkpt lat="49.0254979" lon="2.7615408">
<ele>161.28</ele>
<time>2021-06-16T13:21:12Z</time>
</trkpt>
<trkpt lat="49.0253777" lon="2.7612780">
<ele>158.78</ele>
<time>2021-06-16T13:21:23Z</time>
</trkpt>
<trkpt lat="49.0253131" lon="2.7610202">
<ele>157.95</ele>
<time>2021-06-16T13:21:29Z</time>
</trkpt>
<trkpt lat="49.0255038" lon="2.7609120">
<ele>167.29</ele>
<time>2021-06-16T13:21:40Z</time>
</trkpt>
<trkpt lat="49.0256715" lon="2.7608028">
<ele>168.92</ele>
<time>2021-06-16T13:21:49Z</time>
</trkpt>
<trkpt lat="49.0258679" lon="2.7608695">
<ele>171.51</ele>
<time>2021-06-16T13:21:57Z</time>
</trkpt>
<trkpt lat="49.0260491" lon="2.7609701">
<ele>174.34</ele>
<time>2021-06-16T13:22:04Z</time>
</trkpt>
<trkpt lat="49.0262129" lon="2.7611356">
<ele>176.19</ele>
<time>2021-06-16T13:22:13Z</time>
</trkpt>
<trkpt lat="49.0263353" lon="2.7613550">
<ele>180.85</ele>
<time>2021-06-16T13:22:23Z</time>
</trkpt>
<trkpt lat="49.0265042" lon="2.7612574">
<ele>184.76</ele>
<time>2021-06-16T13:23:20Z</time>
</trkpt>
<trkpt lat="49.0266539" lon="2.7610962">
<ele>182.15</ele>
<time>2021-06-16T13:23:30Z</time>
</trkpt>
<trkpt lat="49.0267881" lon="2.7608959">
<ele>184.69</ele>
<time>2021-06-16T13:23:38Z</time>
</trkpt>
<trkpt lat="49.0268993" lon="2.7606594">
<ele>189.80</ele>
<time>2021-06-16T13:23:45Z</time>
</trkpt>
<trkpt lat="49.0270095" lon="2.7603749">
<ele>183.94</ele>
<time>2021-06-16T13:23:51Z</time>
</trkpt>
<trkpt lat="49.0270745" lon="2.7600973">
<ele>186.37</ele>
<time>2021-06-16T13:23:56Z</time>
</trkpt>
<trkpt lat="49.0271549" lon="2.7598285">
<ele>187.82</ele>
<time>2021-06-16T13:24:02Z</time>
</trkpt>
<trkpt lat="49.0272917" lon="2.7596396">
<ele>188.67</ele>
<time>2021-06-16T13:24:08Z</time>
</trkpt>
<trkpt lat="49.0274218" lon="2.7594099">
<ele>190.24</ele>
<time>2021-06-16T13:24:16Z</time>
</trkpt>
<trkpt lat="49.0275132" lon="2.7591425">
<ele>191.68</ele>
<time>2021-06-16T13:24:23Z</time>
</trkpt>
<trkpt lat="49.0276232" lon="2.7589089">
<ele>194.44</ele>
<time>2021-06-16T13:24:30Z</time>
</trkpt>
<trkpt lat="49.0277562" lon="2.7586771">
<ele>193.64</ele>
<time>2021-06-16T13:24:36Z</time>
</trkpt>
<trkpt lat="49.0278744" lon="2.7584464">
<ele>194.45</ele>
<time>2021-06-16T13:24:41Z</time>
</trkpt>
<trkpt lat="49.0279498" lon="2.7581947">
<ele>189.48</ele>
<time>2021-06-16T13:24:49Z</time>
</trkpt>
<trkpt lat="49.0279722" lon="2.7579152">
<ele>185.80</ele>
<time>2021-06-16T13:25:19Z</time>
</trkpt>
<trkpt lat="49.0280727" lon="2.7576530">
<ele>191.35</ele>
<time>2021-06-16T13:25:29Z</time>
</trkpt>
<trkpt lat="49.0281827" lon="2.7574077">
<ele>192.26</ele>
<time>2021-06-16T13:25:36Z</time>
</trkpt>
<trkpt lat="49.0282785" lon="2.7571258">
<ele>191.99</ele>
<time>2021-06-16T13:25:41Z</time>
</trkpt>
<trkpt lat="49.0283216" lon="2.7568310">
<ele>191.21</ele>
<time>2021-06-16T13:25:46Z</time>
</trkpt>
<trkpt lat="49.0284125" lon="2.7565632">
<ele>187.94</ele>
<time>2021-06-16T13:25:51Z</time>
</trkpt>
<trkpt lat="49.0285207" lon="2.7562619">
<ele>189.52</ele>
<time>2021-06-16T13:25:56Z</time>
</trkpt>
<trkpt lat="49.0286101" lon="2.7560118">
<ele>189.55</ele>
<time>2021-06-16T13:26:01Z</time>
</trkpt>
<trkpt lat="49.0287571" lon="2.7558183">
<ele>193.75</ele>
<time>2021-06-16T13:26:07Z</time>
</trkpt>
<trkpt lat="49.0289483" lon="2.7557905">
<ele>199.81</ele>
<time>2021-06-16T13:26:14Z</time>
</trkpt>
<trkpt lat="49.0291881" lon="2.7557986">
<ele>199.69</ele>
<time>2021-06-16T13:26:19Z</time>
</trkpt>
<trkpt lat="49.0294066" lon="2.7558500">
<ele>198.39</ele>
<time>2021-06-16T13:26:24Z</time>
</trkpt>
<trkpt lat="49.0296397" lon="2.7558324">
<ele>194.79</ele>
<time>2021-06-16T13:26:28Z</time>
</trkpt>
<trkpt lat="49.0298743" lon="2.7557922">
<ele>196.80</ele>
<time>2021-06-16T13:26:32Z</time>
</trkpt>
<trkpt lat="49.0300626" lon="2.7557881">
<ele>197.72</ele>
<time>2021-06-16T13:26:36Z</time>
</trkpt>
<trkpt lat="49.0302432" lon="2.7557192">
<ele>195.16</ele>
<time>2021-06-16T13:26:41Z</time>
</trkpt>
<trkpt lat="49.0304506" lon="2.7555911">
<ele>194.45</ele>
<time>2021-06-16T13:26:46Z</time>
</trkpt>
<trkpt lat="49.0306133" lon="2.7554740">
<ele>194.10</ele>
<time>2021-06-16T13:26:50Z</time>
</trkpt>
<trkpt lat="49.0308142" lon="2.7553793">
<ele>189.91</ele>
<time>2021-06-16T13:26:57Z</time>
</trkpt>
<trkpt lat="49.0309987" lon="2.7554613">
<ele>184.74</ele>
<time>2021-06-16T13:27:01Z</time>
</trkpt>
<trkpt lat="49.0311365" lon="2.7556749">
<ele>180.51</ele>
<time>2021-06-16T13:27:05Z</time>
</trkpt>
<trkpt lat="49.0311350" lon="2.7559545">
<ele>177.57</ele>
<time>2021-06-16T13:27:18Z</time>
</trkpt>
<trkpt lat="49.0311246" lon="2.7562763">
<ele>174.30</ele>
<time>2021-06-16T13:27:22Z</time>
</trkpt>
<trkpt lat="49.0311161" lon="2.7565947">
<ele>169.47</ele>
<time>2021-06-16T13:27:27Z</time>
</trkpt>
<trkpt lat="49.0311930" lon="2.7568858">
<ele>168.54</ele>
<time>2021-06-16T13:27:33Z</time>
</trkpt>
<trkpt lat="49.0312819" lon="2.7571901">
<ele>164.24</ele>
<time>2021-06-16T13:27:37Z</time>
</trkpt>
<trkpt lat="49.0314206" lon="2.7573977">
<ele>166.69</ele>
<time>2021-06-16T13:27:41Z</time>
</trkpt>
<trkpt lat="49.0315093" lon="2.7571224">
<ele>158.63</ele>
<time>2021-06-16T13:27:54Z</time>
</trkpt>
<trkpt lat="49.0316707" lon="2.7569240">
<ele>156.01</ele>
<time>2021-06-16T13:28:00Z</time>
</trkpt>
<trkpt lat="49.0318279" lon="2.7566831">
<ele>153.13</ele>
<time>2021-06-16T13:28:04Z</time>
</trkpt>
<trkpt lat="49.0319525" lon="2.7564813">
<ele>152.42</ele>
<time>2021-06-16T13:28:07Z</time>
</trkpt>
<trkpt lat="49.0321142" lon="2.7562577">
<ele>152.84</ele>
<time>2021-06-16T13:28:11Z</time>
</trkpt>
<trkpt lat="49.0322423" lon="2.7559883">
<ele>152.84</ele>
<time>2021-06-16T13:28:16Z</time>
</trkpt>
<trkpt lat="49.0323828" lon="2.7557567">
<ele>154.07</ele>
<time>2021-06-16T13:28:21Z</time>
</trkpt>
<trkpt lat="49.0325508" lon="2.7555456">
<ele>154.51</ele>
<time>2021-06-16T13:28:26Z</time>
</trkpt>
<trkpt lat="49.0327481" lon="2.7554118">
<ele>161.38</ele>
<time>2021-06-16T13:28:32Z</time>
</trkpt>
<trkpt lat="49.0329507" lon="2.7553275">
<ele>164.97</ele>
<time>2021-06-16T13:28:38Z</time>
</trkpt>
<trkpt lat="49.0331356" lon="2.7553495">
<ele>166.05</ele>
<time>2021-06-16T13:28:43Z</time>
</trkpt>
<trkpt lat="49.0333155" lon="2.7552920">
<ele>167.61</ele>
<time>2021-06-16T13:28:49Z</time>
</trkpt>
<trkpt lat="49.0335080" lon="2.7550370">
<ele>164.55</ele>
<time>2021-06-16T13:28:53Z</time>
</trkpt>
<trkpt lat="49.0336421" lon="2.7548178">
<ele>162.41</ele>
<time>2021-06-16T13:28:56Z</time>
</trkpt>
<trkpt lat="49.0338496" lon="2.7546673">
<ele>162.39</ele>
<time>2021-06-16T13:29:00Z</time>
</trkpt>
<trkpt lat="49.0340440" lon="2.7545854">
<ele>163.05</ele>
<time>2021-06-16T13:29:04Z</time>
</trkpt>
<trkpt lat="49.0342594" lon="2.7546034">
<ele>159.34</ele>
<time>2021-06-16T13:29:08Z</time>
</trkpt>
<trkpt lat="49.0344768" lon="2.7546364">
<ele>159.32</ele>
<time>2021-06-16T13:29:12Z</time>
</trkpt>
<trkpt lat="49.0346729" lon="2.7545525">
<ele>160.73</ele>
<time>2021-06-16T13:29:17Z</time>
</trkpt>
<trkpt lat="49.0348234" lon="2.7543095">
<ele>159.70</ele>
<time>2021-06-16T13:29:22Z</time>
</trkpt>
<trkpt lat="49.0348893" lon="2.7540018">
<ele>158.81</ele>
<time>2021-06-16T13:29:28Z</time>
</trkpt>
<trkpt lat="49.0348489" lon="2.7537300">
<ele>157.94</ele>
<time>2021-06-16T13:29:33Z</time>
</trkpt>
<trkpt lat="49.0348695" lon="2.7534256">
<ele>160.50</ele>
<time>2021-06-16T13:29:39Z</time>
</trkpt>
<trkpt lat="49.0349705" lon="2.7531737">
<ele>166.56</ele>
<time>2021-06-16T13:29:47Z</time>
</trkpt>
<trkpt lat="49.0351242" lon="2.7530228">
<ele>167.79</ele>
<time>2021-06-16T13:29:52Z</time>
</trkpt>
<trkpt lat="49.0353444" lon="2.7529738">
<ele>166.75</ele>
<time>2021-06-16T13:29:57Z</time>
</trkpt>
<trkpt lat="49.0355281" lon="2.7530198">
<ele>167.15</ele>
<time>2021-06-16T13:30:02Z</time>
</trkpt>
<trkpt lat="49.0357476" lon="2.7530934">
<ele>166.68</ele>
<time>2021-06-16T13:30:07Z</time>
</trkpt>
<trkpt lat="49.0359645" lon="2.7531393">
<ele>166.64</ele>
<time>2021-06-16T13:30:12Z</time>
</trkpt>
<trkpt lat="49.0361667" lon="2.7531218">
<ele>166.48</ele>
<time>2021-06-16T13:30:17Z</time>
</trkpt>
<trkpt lat="49.0363746" lon="2.7532127">
<ele>166.56</ele>
<time>2021-06-16T13:30:23Z</time>
</trkpt>
<trkpt lat="49.0365738" lon="2.7531498">
<ele>165.27</ele>
<time>2021-06-16T13:30:29Z</time>
</trkpt>
<trkpt lat="49.0367866" lon="2.7531666">
<ele>166.71</ele>
<time>2021-06-16T13:30:35Z</time>
</trkpt>
<trkpt lat="49.0369698" lon="2.7531794">
<ele>169.89</ele>
<time>2021-06-16T13:30:40Z</time>
</trkpt>
<trkpt lat="49.0371654" lon="2.7531922">
<ele>169.22</ele>
<time>2021-06-16T13:30:45Z</time>
</trkpt>
<trkpt lat="49.0373816" lon="2.7531584">
<ele>170.94</ele>
<time>2021-06-16T13:30:51Z</time>
</trkpt>
<trkpt lat="49.0375623" lon="2.7531214">
<ele>171.78</ele>
<time>2021-06-16T13:30:57Z</time>
</trkpt>
<trkpt lat="49.0377475" lon="2.7531029">
<ele>173.09</ele>
<time>2021-06-16T13:31:02Z</time>
</trkpt>
<trkpt lat="49.0379583" lon="2.7531439">
<ele>173.28</ele>
<time>2021-06-16T13:31:06Z</time>
</trkpt>
<trkpt lat="49.0381888" lon="2.7531466">
<ele>168.44</ele>
<time>2021-06-16T13:31:11Z</time>
</trkpt>
<trkpt lat="49.0383771" lon="2.7532654">
<ele>168.48</ele>
<time>2021-06-16T13:31:16Z</time>
</trkpt>
<trkpt lat="49.0385843" lon="2.7534191">
<ele>165.92</ele>
<time>2021-06-16T13:31:20Z</time>
</trkpt>
<trkpt lat="49.0387607" lon="2.7535535">
<ele>164.76</ele>
<time>2021-06-16T13:31:24Z</time>
</trkpt>
<trkpt lat="49.0389396" lon="2.7536565">
<ele>166.42</ele>
<time>2021-06-16T13:31:27Z</time>
</trkpt>
<trkpt lat="49.0391563" lon="2.7537885">
<ele>168.88</ele>
<time>2021-06-16T13:31:31Z</time>
</trkpt>
<trkpt lat="49.0393077" lon="2.7539816">
<ele>166.39</ele>
<time>2021-06-16T13:31:34Z</time>
</trkpt>
<trkpt lat="49.0394711" lon="2.7541213">
<ele>163.21</ele>
<time>2021-06-16T13:31:37Z</time>
</trkpt>
<trkpt lat="49.0396373" lon="2.7542472">
<ele>161.56</ele>
<time>2021-06-16T13:31:40Z</time>
</trkpt>
<trkpt lat="49.0398169" lon="2.7542127">
<ele>165.08</ele>
<time>2021-06-16T13:31:44Z</time>
</trkpt>
<trkpt lat="49.0400235" lon="2.7542882">
<ele>164.14</ele>
<time>2021-06-16T13:31:54Z</time>
</trkpt>
<trkpt lat="49.0402276" lon="2.7543208">
<ele>164.05</ele>
<time>2021-06-16T13:31:59Z</time>
</trkpt>
<trkpt lat="49.0404251" lon="2.7543067">
<ele>163.39</ele>
<time>2021-06-16T13:32:06Z</time>
</trkpt>
<trkpt lat="49.0406316" lon="2.7543499">
<ele>165.82</ele>
<time>2021-06-16T13:32:12Z</time>
</trkpt>
<trkpt lat="49.0408536" lon="2.7543200">
<ele>165.97</ele>
<time>2021-06-16T13:32:18Z</time>
</trkpt>
<trkpt lat="49.0410548" lon="2.7542479">
<ele>166.44</ele>
<time>2021-06-16T13:32:21Z</time>
</trkpt>
<trkpt lat="49.0412821" lon="2.7542305">
<ele>166.69</ele>
<time>2021-06-16T13:32:25Z</time>
</trkpt>
<trkpt lat="49.0415068" lon="2.7542354">
<ele>165.44</ele>
<time>2021-06-16T13:32:28Z</time>
</trkpt>
<trkpt lat="49.0417268" lon="2.7541338">
<ele>165.21</ele>
<time>2021-06-16T13:32:32Z</time>
</trkpt>
<trkpt lat="49.0419343" lon="2.7540841">
<ele>160.84</ele>
<time>2021-06-16T13:32:36Z</time>
</trkpt>
<trkpt lat="49.0421308" lon="2.7540550">
<ele>160.12</ele>
<time>2021-06-16T13:32:40Z</time>
</trkpt>
<trkpt lat="49.0421813" lon="2.7543198">
<ele>163.44</ele>
<time>2021-06-16T13:32:45Z</time>
</trkpt>
<trkpt lat="49.0421743" lon="2.7546092">
<ele>161.58</ele>
<time>2021-06-16T13:32:50Z</time>
</trkpt>
<trkpt lat="49.0421163" lon="2.7548929">
<ele>161.72</ele>
<time>2021-06-16T13:32:55Z</time>
</trkpt>
<trkpt lat="49.0420017" lon="2.7551251">
<ele>163.08</ele>
<time>2021-06-16T13:32:59Z</time>
</trkpt>
<trkpt lat="49.0419373" lon="2.7554107">
<ele>158.78</ele>
<time>2021-06-16T13:33:03Z</time>
</trkpt>
<trkpt lat="49.0419575" lon="2.7557318">
<ele>156.41</ele>
<time>2021-06-16T13:33:07Z</time>
</trkpt>
<trkpt lat="49.0419533" lon="2.7560082">
<ele>156.70</ele>
<time>2021-06-16T13:33:10Z</time>
</trkpt>
<trkpt lat="49.0421097" lon="2.7561555">
<ele>161.18</ele>
<time>2021-06-16T13:33:20Z</time>
</trkpt>
<trkpt lat="49.0423266" lon="2.7560993">
<ele>161.20</ele>
<time>2021-06-16T13:33:27Z</time>
</trkpt>
<trkpt lat="49.0425365" lon="2.7560669">
<ele>156.10</ele>
<time>2021-06-16T13:33:32Z</time>
</trkpt>
<trkpt lat="49.0427212" lon="2.7559777">
<ele>155.00</ele>
<time>2021-06-16T13:33:37Z</time>
</trkpt>
<trkpt lat="49.0428852" lon="2.7557570">
<ele>153.02</ele>
<time>2021-06-16T13:33:41Z</time>
</trkpt>
<trkpt lat="49.0430181" lon="2.7555118">
<ele>155.21</ele>
<time>2021-06-16T13:33:46Z</time>
</trkpt>
<trkpt lat="49.0430891" lon="2.7552367">
<ele>154.44</ele>
<time>2021-06-16T13:33:51Z</time>
</trkpt>
<trkpt lat="49.0431499" lon="2.7549685">
<ele>152.62</ele>
<time>2021-06-16T13:33:55Z</time>
</trkpt>
<trkpt lat="49.0430808" lon="2.7546790">
<ele>151.74</ele>
<time>2021-06-16T13:33:59Z</time>
</trkpt>
<trkpt lat="49.0430773" lon="2.7543813">
<ele>153.38</ele>
<time>2021-06-16T13:34:03Z</time>
</trkpt>
<trkpt lat="49.0430265" lon="2.7540877">
<ele>155.60</ele>
<time>2021-06-16T13:34:08Z</time>
</trkpt>
<trkpt lat="49.0431220" lon="2.7537977">
<ele>156.15</ele>
<time>2021-06-16T13:34:12Z</time>
</trkpt>
<trkpt lat="49.0431961" lon="2.7534940">
<ele>152.06</ele>
<time>2021-06-16T13:34:17Z</time>
</trkpt>
<trkpt lat="49.0432387" lon="2.7531429">
<ele>146.69</ele>
<time>2021-06-16T13:34:21Z</time>
</trkpt>
<trkpt lat="49.0431717" lon="2.7528582">
<ele>146.28</ele>
<time>2021-06-16T13:34:24Z</time>
</trkpt>
<trkpt lat="49.0430546" lon="2.7525748">
<ele>147.00</ele>
<time>2021-06-16T13:34:28Z</time>
</trkpt>
<trkpt lat="49.0428221" lon="2.7524971">
<ele>146.81</ele>
<time>2021-06-16T13:34:32Z</time>
</trkpt>
<trkpt lat="49.0426084" lon="2.7525710">
<ele>146.36</ele>
<time>2021-06-16T13:34:37Z</time>
</trkpt>
<trkpt lat="49.0424855" lon="2.7527956">
<ele>147.07</ele>
<time>2021-06-16T13:34:44Z</time>
</trkpt>
<trkpt lat="49.0422733" lon="2.7529499">
<ele>148.06</ele>
<time>2021-06-16T13:34:51Z</time>
</trkpt>
<trkpt lat="49.0420667" lon="2.7528634">
<ele>149.49</ele>
<time>2021-06-16T13:34:57Z</time>
</trkpt>
<trkpt lat="49.0418562" lon="2.7527360">
<ele>152.75</ele>
<time>2021-06-16T13:35:02Z</time>
</trkpt>
<trkpt lat="49.0416432" lon="2.7526329">
<ele>152.29</ele>
<time>2021-06-16T13:35:07Z</time>
</trkpt>
<trkpt lat="49.0414399" lon="2.7524925">
<ele>154.46</ele>
<time>2021-06-16T13:35:12Z</time>
</trkpt>
<trkpt lat="49.0412261" lon="2.7524267">
<ele>155.54</ele>
<time>2021-06-16T13:35:16Z</time>
</trkpt>
<trkpt lat="49.0409891" lon="2.7523291">
<ele>154.68</ele>
<time>2021-06-16T13:35:19Z</time>
</trkpt>
<trkpt lat="49.0407873" lon="2.7522389">
<ele>153.13</ele>
<time>2021-06-16T13:35:22Z</time>
</trkpt>
<trkpt lat="49.0405944" lon="2.7521636">
<ele>152.37</ele>
<time>2021-06-16T13:35:25Z</time>
</trkpt>
<trkpt lat="49.0404156" lon="2.7520566">
<ele>153.36</ele>
<time>2021-06-16T13:35:29Z</time>
</trkpt>
<trkpt lat="49.0402019" lon="2.7519750">
<ele>155.80</ele>
<time>2021-06-16T13:35:35Z</time>
</trkpt>
<trkpt lat="49.0403301" lon="2.7517560">
<ele>154.20</ele>
<time>2021-06-16T13:35:43Z</time>
</trkpt>
<trkpt lat="49.0401581" lon="2.7518446">
<ele>157.40</ele>
<time>2021-06-16T13:36:06Z</time>
</trkpt>
<trkpt lat="49.0399749" lon="2.7519418">
<ele>158.15</ele>
<time>2021-06-16T13:36:12Z</time>
</trkpt>
<trkpt lat="49.0397620" lon="2.7519457">
<ele>158.09</ele>
<time>2021-06-16T13:36:19Z</time>
</trkpt>
<trkpt lat="49.0395830" lon="2.7519028">
<ele>157.29</ele>
<time>2021-06-16T13:36:24Z</time>
</trkpt>
<trkpt lat="49.0394212" lon="2.7517605">
<ele>157.92</ele>
<time>2021-06-16T13:36:29Z</time>
</trkpt>
<trkpt lat="49.0393218" lon="2.7514531">
<ele>158.39</ele>
<time>2021-06-16T13:36:35Z</time>
</trkpt>
<trkpt lat="49.0393974" lon="2.7511470">
<ele>158.04</ele>
<time>2021-06-16T13:36:39Z</time>
</trkpt>
<trkpt lat="49.0395184" lon="2.7508735">
<ele>157.61</ele>
<time>2021-06-16T13:36:43Z</time>
</trkpt>
<trkpt lat="49.0396208" lon="2.7505997">
<ele>157.38</ele>
<time>2021-06-16T13:36:47Z</time>
</trkpt>
<trkpt lat="49.0397888" lon="2.7504272">
<ele>160.35</ele>
<time>2021-06-16T13:36:53Z</time>
</trkpt>
<trkpt lat="49.0399554" lon="2.7505504">
<ele>159.46</ele>
<time>2021-06-16T13:36:56Z</time>
</trkpt>
<trkpt lat="49.0402020" lon="2.7507021">
<ele>156.32</ele>
<time>2021-06-16T13:36:59Z</time>
</trkpt>
<trkpt lat="49.0403850" lon="2.7507704">
<ele>153.14</ele>
<time>2021-06-16T13:37:01Z</time>
</trkpt>
<trkpt lat="49.0404615" lon="2.7510934">
<ele>151.88</ele>
<time>2021-06-16T13:37:05Z</time>
</trkpt>
<trkpt lat="49.0405154" lon="2.7513889">
<ele>153.56</ele>
<time>2021-06-16T13:37:09Z</time>
</trkpt>
<trkpt lat="49.0405410" lon="2.7516705">
<ele>153.05</ele>
<time>2021-06-16T13:37:18Z</time>
</trkpt>
<trkpt lat="49.0406693" lon="2.7519284">
<ele>151.76</ele>
<time>2021-06-16T13:37:25Z</time>
</trkpt>
<trkpt lat="49.0408734" lon="2.7519477">
<ele>150.24</ele>
<time>2021-06-16T13:37:28Z</time>
</trkpt>
<trkpt lat="49.0411132" lon="2.7519289">
<ele>150.76</ele>
<time>2021-06-16T13:37:33Z</time>
</trkpt>
<trkpt lat="49.0412936" lon="2.7518662">
<ele>154.42</ele>
<time>2021-06-16T13:37:37Z</time>
</trkpt>
<trkpt lat="49.0415104" lon="2.7518751">
<ele>154.65</ele>
<time>2021-06-16T13:37:41Z</time>
</trkpt>
<trkpt lat="49.0417177" lon="2.7519116">
<ele>153.81</ele>
<time>2021-06-16T13:37:45Z</time>
</trkpt>
<trkpt lat="49.0419104" lon="2.7520155">
<ele>154.95</ele>
<time>2021-06-16T13:37:49Z</time>
</trkpt>
<trkpt lat="49.0420992" lon="2.7521429">
<ele>154.80</ele>
<time>2021-06-16T13:37:53Z</time>
</trkpt>
<trkpt lat="49.0423458" lon="2.7521962">
<ele>154.09</ele>
<time>2021-06-16T13:37:57Z</time>
</trkpt>
<trkpt lat="49.0425443" lon="2.7522283">
<ele>153.31</ele>
<time>2021-06-16T13:38:01Z</time>
</trkpt>
<trkpt lat="49.0427569" lon="2.7522484">
<ele>155.48</ele>
<time>2021-06-16T13:38:05Z</time>
</trkpt>
<trkpt lat="49.0429504" lon="2.7520620">
<ele>152.65</ele>
<time>2021-06-16T13:38:08Z</time>
</trkpt>
<trkpt lat="49.0431391" lon="2.7518863">
<ele>148.56</ele>
<time>2021-06-16T13:38:10Z</time>
</trkpt>
<trkpt lat="49.0433079" lon="2.7516336">
<ele>146.49</ele>
<time>2021-06-16T13:38:13Z</time>
</trkpt>
<trkpt lat="49.0434581" lon="2.7514342">
<ele>142.84</ele>
<time>2021-06-16T13:38:15Z</time>
</trkpt>
<trkpt lat="49.0436169" lon="2.7511151">
<ele>142.39</ele>
<time>2021-06-16T13:38:18Z</time>
</trkpt>
<trkpt lat="49.0437462" lon="2.7507944">
<ele>141.23</ele>
<time>2021-06-16T13:38:20Z</time>
</trkpt>
<trkpt lat="49.0438198" lon="2.7505303">
<ele>139.86</ele>
<time>2021-06-16T13:38:22Z</time>
</trkpt>
<trkpt lat="49.0438579" lon="2.7501920">
<ele>138.03</ele>
<time>2021-06-16T13:38:25Z</time>
</trkpt>
<trkpt lat="49.0438131" lon="2.7498652">
<ele>131.35</ele>
<time>2021-06-16T13:38:29Z</time>
</trkpt>
<trkpt lat="49.0438982" lon="2.7495406">
<ele>130.04</ele>
<time>2021-06-16T13:38:32Z</time>
</trkpt>
<trkpt lat="49.0439495" lon="2.7492147">
<ele>128.12</ele>
<time>2021-06-16T13:38:35Z</time>
</trkpt>
<trkpt lat="49.0438831" lon="2.7489282">
<ele>127.40</ele>
<time>2021-06-16T13:38:39Z</time>
</trkpt>
<trkpt lat="49.0437128" lon="2.7487645">
<ele>128.03</ele>
<time>2021-06-16T13:38:43Z</time>
</trkpt>
<trkpt lat="49.0434956" lon="2.7486839">
<ele>129.89</ele>
<time>2021-06-16T13:38:46Z</time>
</trkpt>
<trkpt lat="49.0433138" lon="2.7485919">
<ele>127.63</ele>
<time>2021-06-16T13:38:49Z</time>
</trkpt>
<trkpt lat="49.0431345" lon="2.7484608">
<ele>124.84</ele>
<time>2021-06-16T13:38:52Z</time>
</trkpt>
<trkpt lat="49.0429046" lon="2.7483404">
<ele>125.97</ele>
<time>2021-06-16T13:38:56Z</time>
</trkpt>
<trkpt lat="49.0427221" lon="2.7482151">
<ele>127.37</ele>
<time>2021-06-16T13:39:00Z</time>
</trkpt>
<trkpt lat="49.0425215" lon="2.7480296">
<ele>123.99</ele>
<time>2021-06-16T13:39:04Z</time>
</trkpt>
<trkpt lat="49.0423181" lon="2.7478582">
<ele>125.85</ele>
<time>2021-06-16T13:39:08Z</time>
</trkpt>
<trkpt lat="49.0421005" lon="2.7477174">
<ele>127.20</ele>
<time>2021-06-16T13:39:12Z</time>
</trkpt>
<trkpt lat="49.0418912" lon="2.7475802">
<ele>126.49</ele>
<time>2021-06-16T13:39:16Z</time>
</trkpt>
<trkpt lat="49.0417206" lon="2.7474107">
<ele>126.22</ele>
<time>2021-06-16T13:39:21Z</time>
</trkpt>
<trkpt lat="49.0415210" lon="2.7473032">
<ele>125.48</ele>
<time>2021-06-16T13:39:26Z</time>
</trkpt>
<trkpt lat="49.0413257" lon="2.7472526">
<ele>125.24</ele>
<time>2021-06-16T13:39:30Z</time>
</trkpt>
<trkpt lat="49.0411267" lon="2.7471444">
<ele>124.66</ele>
<time>2021-06-16T13:39:35Z</time>
</trkpt>
<trkpt lat="49.0409343" lon="2.7469758">
<ele>120.30</ele>
<time>2021-06-16T13:39:39Z</time>
</trkpt>
<trkpt lat="49.0408895" lon="2.7467076">
<ele>120.33</ele>
<time>2021-06-16T13:39:46Z</time>
</trkpt>
<trkpt lat="49.0407429" lon="2.7465157">
<ele>122.94</ele>
<time>2021-06-16T13:40:29Z</time>
</trkpt>
<trkpt lat="49.0405911" lon="2.7462860">
<ele>124.60</ele>
<time>2021-06-16T13:40:34Z</time>
</trkpt>
<trkpt lat="49.0404113" lon="2.7460756">
<ele>124.28</ele>
<time>2021-06-16T13:40:39Z</time>
</trkpt>
<trkpt lat="49.0402802" lon="2.7458748">
<ele>122.48</ele>
<time>2021-06-16T13:40:43Z</time>
</trkpt>
<trkpt lat="49.0401480" lon="2.7456618">
<ele>124.51</ele>
<time>2021-06-16T13:40:48Z</time>
</trkpt>
<trkpt lat="49.0400226" lon="2.7454365">
<ele>124.98</ele>
<time>2021-06-16T13:40:53Z</time>
</trkpt>
<trkpt lat="49.0398923" lon="2.7452286">
<ele>130.11</ele>
<time>2021-06-16T13:40:58Z</time>
</trkpt>
<trkpt lat="49.0397819" lon="2.7449600">
<ele>129.91</ele>
<time>2021-06-16T13:41:03Z</time>
</trkpt>
<trkpt lat="49.0396458" lon="2.7447323">
<ele>131.65</ele>
<time>2021-06-16T13:41:10Z</time>
</trkpt>
<trkpt lat="49.0394676" lon="2.7446640">
<ele>128.23</ele>
<time>2021-06-16T13:41:23Z</time>
</trkpt>
<trkpt lat="49.0393860" lon="2.7449184">
<ele>130.54</ele>
<time>2021-06-16T13:41:31Z</time>
</trkpt>
<trkpt lat="49.0394376" lon="2.7452124">
<ele>132.49</ele>
<time>2021-06-16T13:41:38Z</time>
</trkpt>
<trkpt lat="49.0395208" lon="2.7454566">
<ele>136.47</ele>
<time>2021-06-16T13:41:44Z</time>
</trkpt>
<trkpt lat="49.0395184" lon="2.7457612">
<ele>136.40</ele>
<time>2021-06-16T13:41:52Z</time>
</trkpt>
<trkpt lat="49.0393334" lon="2.7457493">
<ele>134.37</ele>
<time>2021-06-16T13:42:06Z</time>
</trkpt>
<trkpt lat="49.0392245" lon="2.7454981">
<ele>138.96</ele>
<time>2021-06-16T13:42:14Z</time>
</trkpt>
<trkpt lat="49.0390431" lon="2.7453664">
<ele>138.59</ele>
<time>2021-06-16T13:42:20Z</time>
</trkpt>
<trkpt lat="49.0388996" lon="2.7455461">
<ele>141.42</ele>
<time>2021-06-16T13:42:28Z</time>
</trkpt>
<trkpt lat="49.0388917" lon="2.7458255">
<ele>143.09</ele>
<time>2021-06-16T13:42:36Z</time>
</trkpt>
<trkpt lat="49.0388474" lon="2.7461035">
<ele>143.43</ele>
<time>2021-06-16T13:42:43Z</time>
</trkpt>
<trkpt lat="49.0387623" lon="2.7463887">
<ele>144.73</ele>
<time>2021-06-16T13:42:50Z</time>
</trkpt>
<trkpt lat="49.0386499" lon="2.7466061">
<ele>143.65</ele>
<time>2021-06-16T13:42:55Z</time>
</trkpt>
<trkpt lat="49.0385407" lon="2.7468390">
<ele>145.53</ele>
<time>2021-06-16T13:43:01Z</time>
</trkpt>
<trkpt lat="49.0384164" lon="2.7470869">
<ele>147.18</ele>
<time>2021-06-16T13:43:07Z</time>
</trkpt>
<trkpt lat="49.0383187" lon="2.7473225">
<ele>145.94</ele>
<time>2021-06-16T13:43:13Z</time>
</trkpt>
<trkpt lat="49.0382016" lon="2.7475496">
<ele>144.72</ele>
<time>2021-06-16T13:43:18Z</time>
</trkpt>
<trkpt lat="49.0381923" lon="2.7478500">
<ele>144.73</ele>
<time>2021-06-16T13:43:25Z</time>
</trkpt>
<trkpt lat="49.0382537" lon="2.7481328">
<ele>148.92</ele>
<time>2021-06-16T13:43:31Z</time>
</trkpt>
<trkpt lat="49.0383160" lon="2.7484142">
<ele>150.11</ele>
<time>2021-06-16T13:43:37Z</time>
</trkpt>
<trkpt lat="49.0383366" lon="2.7487277">
<ele>153.23</ele>
<time>2021-06-16T13:43:44Z</time>
</trkpt>
<trkpt lat="49.0383179" lon="2.7490185">
<ele>154.63</ele>
<time>2021-06-16T13:43:51Z</time>
</trkpt>
<trkpt lat="49.0382559" lon="2.7492839">
<ele>156.29</ele>
<time>2021-06-16T13:43:57Z</time>
</trkpt>
<trkpt lat="49.0381979" lon="2.7495892">
<ele>159.26</ele>
<time>2021-06-16T13:44:05Z</time>
</trkpt>
<trkpt lat="49.0382230" lon="2.7498723">
<ele>166.51</ele>
<time>2021-06-16T13:44:14Z</time>
</trkpt>
<trkpt lat="49.0381790" lon="2.7501592">
<ele>166.07</ele>
<time>2021-06-16T13:44:23Z</time>
</trkpt>
<trkpt lat="49.0381848" lon="2.7504758">
<ele>166.28</ele>
<time>2021-06-16T13:44:28Z</time>
</trkpt>
<trkpt lat="49.0382016" lon="2.7507655">
<ele>167.48</ele>
<time>2021-06-16T13:44:36Z</time>
</trkpt>
<trkpt lat="49.0381634" lon="2.7510688">
<ele>168.56</ele>
<time>2021-06-16T13:44:44Z</time>
</trkpt>
<trkpt lat="49.0381139" lon="2.7513460">
<ele>167.85</ele>
<time>2021-06-16T13:44:51Z</time>
</trkpt>
<trkpt lat="49.0380730" lon="2.7516160">
<ele>167.84</ele>
<time>2021-06-16T13:44:58Z</time>
</trkpt>
<trkpt lat="49.0380222" lon="2.7518823">
<ele>168.34</ele>
<time>2021-06-16T13:45:05Z</time>
</trkpt>
<trkpt lat="49.0379738" lon="2.7521624">
<ele>170.72</ele>
<time>2021-06-16T13:45:12Z</time>
</trkpt>
<trkpt lat="49.0378355" lon="2.7523904">
<ele>169.88</ele>
<time>2021-06-16T13:45:23Z</time>
</trkpt>
<trkpt lat="49.0377638" lon="2.7526728">
<ele>170.38</ele>
<time>2021-06-16T13:45:29Z</time>
</trkpt>
<trkpt lat="49.0375862" lon="2.7527209">
<ele>170.72</ele>
<time>2021-06-16T13:45:37Z</time>
</trkpt>
<trkpt lat="49.0374010" lon="2.7525939">
<ele>175.34</ele>
<time>2021-06-16T13:45:50Z</time>
</trkpt>
<trkpt lat="49.0372561" lon="2.7524114">
<ele>176.32</ele>
<time>2021-06-16T13:45:59Z</time>
</trkpt>
<trkpt lat="49.0370968" lon="2.7522194">
<ele>179.58</ele>
<time>2021-06-16T13:46:06Z</time>
</trkpt>
<trkpt lat="49.0369769" lon="2.7520105">
<ele>180.92</ele>
<time>2021-06-16T13:46:13Z</time>
</trkpt>
<trkpt lat="49.0368775" lon="2.7517546">
<ele>178.13</ele>
<time>2021-06-16T13:46:23Z</time>
</trkpt>
<trkpt lat="49.0367591" lon="2.7515467">
<ele>182.70</ele>
<time>2021-06-16T13:46:29Z</time>
</trkpt>
<trkpt lat="49.0365868" lon="2.7513909">
<ele>187.29</ele>
<time>2021-06-16T13:46:36Z</time>
</trkpt>
<trkpt lat="49.0363959" lon="2.7512998">
<ele>184.10</ele>
<time>2021-06-16T13:46:43Z</time>
</trkpt>
<trkpt lat="49.0362892" lon="2.7510604">
<ele>184.89</ele>
<time>2021-06-16T13:46:50Z</time>
</trkpt>
<trkpt lat="49.0361621" lon="2.7508624">
<ele>185.69</ele>
<time>2021-06-16T13:46:56Z</time>
</trkpt>
<trkpt lat="49.0360811" lon="2.7505779">
<ele>190.72</ele>
<time>2021-06-16T13:47:04Z</time>
</trkpt>
<trkpt lat="49.0359825" lon="2.7503438">
<ele>191.11</ele>
<time>2021-06-16T13:47:10Z</time>
</trkpt>
<trkpt lat="49.0357946" lon="2.7502356">
<ele>189.49</ele>
<time>2021-06-16T13:47:15Z</time>
</trkpt>
<trkpt lat="49.0355946" lon="2.7502096">
<ele>190.81</ele>
<time>2021-06-16T13:47:20Z</time>
</trkpt>
<trkpt lat="49.0354064" lon="2.7501630">
<ele>190.80</ele>
<time>2021-06-16T13:47:26Z</time>
</trkpt>
<trkpt lat="49.0352107" lon="2.7501768">
<ele>192.42</ele>
<time>2021-06-16T13:47:31Z</time>
</trkpt>
<trkpt lat="49.0350282" lon="2.7502814">
<ele>192.40</ele>
<time>2021-06-16T13:47:38Z</time>
</trkpt>
<trkpt lat="49.0348549" lon="2.7504400">
<ele>188.88</ele>
<time>2021-06-16T13:47:45Z</time>
</trkpt>
<trkpt lat="49.0346707" lon="2.7505747">
<ele>189.95</ele>
<time>2021-06-16T13:47:50Z</time>
</trkpt>
<trkpt lat="49.0344874" lon="2.7506856">
<ele>193.96</ele>
<time>2021-06-16T13:47:58Z</time>
</trkpt>
<trkpt lat="49.0343142" lon="2.7505160">
<ele>197.44</ele>
<time>2021-06-16T13:48:05Z</time>
</trkpt>
<trkpt lat="49.0341296" lon="2.7504004">
<ele>194.51</ele>
<time>2021-06-16T13:48:12Z</time>
</trkpt>
<trkpt lat="49.0339106" lon="2.7504084">
<ele>198.13</ele>
<time>2021-06-16T13:48:16Z</time>
</trkpt>
<trkpt lat="49.0337259" lon="2.7505315">
<ele>200.52</ele>
<time>2021-06-16T13:48:21Z</time>
</trkpt>
<trkpt lat="49.0334776" lon="2.7505837">
<ele>200.93</ele>
<time>2021-06-16T13:48:26Z</time>
</trkpt>
<trkpt lat="49.0332701" lon="2.7507309">
<ele>203.11</ele>
<time>2021-06-16T13:48:31Z</time>
</trkpt>
<trkpt lat="49.0330488" lon="2.7508528">
<ele>206.50</ele>
<time>2021-06-16T13:48:36Z</time>
</trkpt>
<trkpt lat="49.0328546" lon="2.7508922">
<ele>206.89</ele>
<time>2021-06-16T13:48:40Z</time>
</trkpt>
<trkpt lat="49.0326173" lon="2.7509901">
<ele>209.46</ele>
<time>2021-06-16T13:48:45Z</time>
</trkpt>
<trkpt lat="49.0324341" lon="2.7510117">
<ele>207.96</ele>
<time>2021-06-16T13:48:48Z</time>
</trkpt>
<trkpt lat="49.0322482" lon="2.7510663">
<ele>206.50</ele>
<time>2021-06-16T13:48:52Z</time>
</trkpt>
<trkpt lat="49.0320543" lon="2.7510596">
<ele>205.83</ele>
<time>2021-06-16T13:48:56Z</time>
</trkpt>
<trkpt lat="49.0318419" lon="2.7511011">
<ele>204.41</ele>
<time>2021-06-16T13:49:00Z</time>
</trkpt>
<trkpt lat="49.0316325" lon="2.7511860">
<ele>201.76</ele>
<time>2021-06-16T13:49:04Z</time>
</trkpt>
<trkpt lat="49.0314577" lon="2.7512733">
<ele>201.24</ele>
<time>2021-06-16T13:49:08Z</time>
</trkpt>
<trkpt lat="49.0312681" lon="2.7514448">
<ele>199.80</ele>
<time>2021-06-16T13:49:12Z</time>
</trkpt>
<trkpt lat="49.0310991" lon="2.7515529">
<ele>198.46</ele>
<time>2021-06-16T13:49:15Z</time>
</trkpt>
<trkpt lat="49.0308730" lon="2.7515456">
<ele>197.29</ele>
<time>2021-06-16T13:49:19Z</time>
</trkpt>
<trkpt lat="49.0306427" lon="2.7514735">
<ele>193.75</ele>
<time>2021-06-16T13:49:26Z</time>
</trkpt>
<trkpt lat="49.0303384" lon="2.7512753">
<ele>195.37</ele>
<time>2021-06-16T13:49:27Z</time>
</trkpt>
<trkpt lat="49.0301458" lon="2.7511321">
<ele>198.69</ele>
<time>2021-06-16T13:49:32Z</time>
</trkpt>
<trkpt lat="49.0299917" lon="2.7513219">
<ele>196.63</ele>
<time>2021-06-16T13:49:41Z</time>
</trkpt>
<trkpt lat="49.0299054" lon="2.7516028">
<ele>194.29</ele>
<time>2021-06-16T13:49:48Z</time>
</trkpt>
<trkpt lat="49.0297618" lon="2.7517855">
<ele>196.78</ele>
<time>2021-06-16T13:49:52Z</time>
</trkpt>
<trkpt lat="49.0295832" lon="2.7519595">
<ele>196.78</ele>
<time>2021-06-16T13:49:56Z</time>
</trkpt>
<trkpt lat="49.0294743" lon="2.7522297">
<ele>198.92</ele>
<time>2021-06-16T13:50:01Z</time>
</trkpt>
<trkpt lat="49.0294794" lon="2.7525338">
<ele>201.43</ele>
<time>2021-06-16T13:50:07Z</time>
</trkpt>
<trkpt lat="49.0294583" lon="2.7528145">
<ele>196.22</ele>
<time>2021-06-16T13:50:12Z</time>
</trkpt>
<trkpt lat="49.0294008" lon="2.7531073">
<ele>189.46</ele>
<time>2021-06-16T13:50:17Z</time>
</trkpt>
<trkpt lat="49.0292672" lon="2.7533148">
<ele>189.92</ele>
<time>2021-06-16T13:50:32Z</time>
</trkpt>
<trkpt lat="49.0291418" lon="2.7535832">
<ele>191.07</ele>
<time>2021-06-16T13:50:39Z</time>
</trkpt>
<trkpt lat="49.0290457" lon="2.7538562">
<ele>189.64</ele>
<time>2021-06-16T13:50:44Z</time>
</trkpt>
<trkpt lat="49.0288991" lon="2.7540566">
<ele>192.80</ele>
<time>2021-06-16T13:50:47Z</time>
</trkpt>
<trkpt lat="49.0287716" lon="2.7542848">
<ele>193.56</ele>
<time>2021-06-16T13:50:53Z</time>
</trkpt>
<trkpt lat="49.0285966" lon="2.7544329">
<ele>194.67</ele>
<time>2021-06-16T13:53:58Z</time>
</trkpt>
<trkpt lat="49.0284250" lon="2.7546748">
<ele>195.12</ele>
<time>2021-06-16T13:54:13Z</time>
</trkpt>
<trkpt lat="49.0283435" lon="2.7549371">
<ele>195.86</ele>
<time>2021-06-16T13:54:54Z</time>
</trkpt>
<trkpt lat="49.0282001" lon="2.7551764">
<ele>194.36</ele>
<time>2021-06-16T13:55:03Z</time>
</trkpt>
<trkpt lat="49.0280871" lon="2.7553909">
<ele>198.27</ele>
<time>2021-06-16T13:55:08Z</time>
</trkpt>
<trkpt lat="49.0280340" lon="2.7556578">
<ele>197.07</ele>
<time>2021-06-16T13:55:12Z</time>
</trkpt>
<trkpt lat="49.0279647" lon="2.7559267">
<ele>195.31</ele>
<time>2021-06-16T13:55:21Z</time>
</trkpt>
<trkpt lat="49.0278874" lon="2.7561829">
<ele>189.56</ele>
<time>2021-06-16T13:55:44Z</time>
</trkpt>
<trkpt lat="49.0278125" lon="2.7564770">
<ele>195.34</ele>
<time>2021-06-16T13:56:20Z</time>
</trkpt>
<trkpt lat="49.0276962" lon="2.7567272">
<ele>194.65</ele>
<time>2021-06-16T13:56:25Z</time>
</trkpt>
<trkpt lat="49.0277778" lon="2.7570017">
<ele>191.26</ele>
<time>2021-06-16T13:56:33Z</time>
</trkpt>
<trkpt lat="49.0279151" lon="2.7574480">
<ele>198.01</ele>
<time>2021-06-16T13:57:48Z</time>
</trkpt>
<trkpt lat="49.0279572" lon="2.7577383">
<ele>197.31</ele>
<time>2021-06-16T13:57:52Z</time>
</trkpt>
<trkpt lat="49.0279678" lon="2.7580169">
<ele>199.11</ele>
<time>2021-06-16T13:57:59Z</time>
</trkpt>
<trkpt lat="49.0278958" lon="2.7582757">
<ele>196.24</ele>
<time>2021-06-16T13:58:13Z</time>
</trkpt>
<trkpt lat="49.0278326" lon="2.7585787">
<ele>195.80</ele>
<time>2021-06-16T13:58:18Z</time>
</trkpt>
<trkpt lat="49.0277008" lon="2.7587876">
<ele>193.29</ele>
<time>2021-06-16T13:58:24Z</time>
</trkpt>
<trkpt lat="49.0276015" lon="2.7590238">
<ele>193.01</ele>
<time>2021-06-16T13:58:30Z</time>
</trkpt>
<trkpt lat="49.0274271" lon="2.7592580">
<ele>191.73</ele>
<time>2021-06-16T13:58:34Z</time>
</trkpt>
<trkpt lat="49.0272575" lon="2.7594760">
<ele>187.58</ele>
<time>2021-06-16T13:58:36Z</time>
</trkpt>
<trkpt lat="49.0271027" lon="2.7596923">
<ele>187.89</ele>
<time>2021-06-16T13:58:39Z</time>
</trkpt>
<trkpt lat="49.0270370" lon="2.7599800">
<ele>187.14</ele>
<time>2021-06-16T13:58:42Z</time>
</trkpt>
<trkpt lat="49.0269766" lon="2.7603653">
<ele>186.73</ele>
<time>2021-06-16T13:58:46Z</time>
</trkpt>
<trkpt lat="49.0268834" lon="2.7606403">
<ele>185.89</ele>
<time>2021-06-16T13:58:49Z</time>
</trkpt>
<trkpt lat="49.0267727" lon="2.7608654">
<ele>187.89</ele>
<time>2021-06-16T13:58:51Z</time>
</trkpt>
<trkpt lat="49.0266466" lon="2.7610692">
<ele>189.28</ele>
<time>2021-06-16T13:59:00Z</time>
</trkpt>
<trkpt lat="49.0268185" lon="2.7611907">
<ele>188.30</ele>
<time>2021-06-16T14:00:08Z</time>
</trkpt>
<trkpt lat="49.0269860" lon="2.7613176">
<ele>193.25</ele>
<time>2021-06-16T14:00:20Z</time>
</trkpt>
<trkpt lat="49.0271827" lon="2.7614112">
<ele>195.22</ele>
<time>2021-06-16T14:00:33Z</time>
</trkpt>
<trkpt lat="49.0273719" lon="2.7614345">
<ele>195.41</ele>
<time>2021-06-16T14:00:38Z</time>
</trkpt>
<trkpt lat="49.0275241" lon="2.7616069">
<ele>199.29</ele>
<time>2021-06-16T14:00:48Z</time>
</trkpt>
<trkpt lat="49.0277062" lon="2.7616322">
<ele>199.18</ele>
<time>2021-06-16T14:00:58Z</time>
</trkpt>
<trkpt lat="49.0278603" lon="2.7618261">
<ele>190.88</ele>
<time>2021-06-16T14:01:21Z</time>
</trkpt>
<trkpt lat="49.0280341" lon="2.7619779">
<ele>190.90</ele>
<time>2021-06-16T14:01:22Z</time>
</trkpt>
<trkpt lat="49.0281153" lon="2.7622557">
<ele>193.86</ele>
<time>2021-06-16T14:01:28Z</time>
</trkpt>
<trkpt lat="49.0280876" lon="2.7625727">
<ele>191.25</ele>
<time>2021-06-16T14:01:35Z</time>
</trkpt>
<trkpt lat="49.0280836" lon="2.7629018">
<ele>196.18</ele>
<time>2021-06-16T14:01:41Z</time>
</trkpt>
<trkpt lat="49.0280661" lon="2.7631917">
<ele>193.17</ele>
<time>2021-06-16T14:01:45Z</time>
</trkpt>
<trkpt lat="49.0280471" lon="2.7634918">
<ele>183.14</ele>
<time>2021-06-16T14:01:54Z</time>
</trkpt>
<trkpt lat="49.0280390" lon="2.7638032">
<ele>176.57</ele>
<time>2021-06-16T14:01:59Z</time>
</trkpt>
<trkpt lat="49.0282282" lon="2.7637535">
<ele>176.23</ele>
<time>2021-06-16T14:02:04Z</time>
</trkpt>
<trkpt lat="49.0284207" lon="2.7635875">
<ele>176.60</ele>
<time>2021-06-16T14:02:08Z</time>
</trkpt>
<trkpt lat="49.0285589" lon="2.7633822">
<ele>175.85</ele>
<time>2021-06-16T14:02:11Z</time>
</trkpt>
<trkpt lat="49.0287784" lon="2.7630338">
<ele>173.67</ele>
<time>2021-06-16T14:02:13Z</time>
</trkpt>
<trkpt lat="49.0289239" lon="2.7627359">
<ele>171.90</ele>
<time>2021-06-16T14:02:16Z</time>
</trkpt>
<trkpt lat="49.0290740" lon="2.7624130">
<ele>169.83</ele>
<time>2021-06-16T14:02:19Z</time>
</trkpt>
<trkpt lat="49.0291681" lon="2.7621073">
<ele>166.54</ele>
<time>2021-06-16T14:02:21Z</time>
</trkpt>
<trkpt lat="49.0292160" lon="2.7618136">
<ele>165.83</ele>
<time>2021-06-16T14:02:23Z</time>
</trkpt>
<trkpt lat="49.0292908" lon="2.7615220">
<ele>165.48</ele>
<time>2021-06-16T14:02:25Z</time>
</trkpt>
<trkpt lat="49.0293258" lon="2.7612505">
<ele>164.11</ele>
<time>2021-06-16T14:02:27Z</time>
</trkpt>
<trkpt lat="49.0294522" lon="2.7609936">
<ele>161.95</ele>
<time>2021-06-16T14:02:30Z</time>
</trkpt>
<trkpt lat="49.0296560" lon="2.7609213">
<ele>160.72</ele>
<time>2021-06-16T14:02:33Z</time>
</trkpt>
<trkpt lat="49.0298500" lon="2.7608769">
<ele>160.86</ele>
<time>2021-06-16T14:02:35Z</time>
</trkpt>
<trkpt lat="49.0300107" lon="2.7607339">
<ele>161.06</ele>
<time>2021-06-16T14:02:37Z</time>
</trkpt>
<trkpt lat="49.0301642" lon="2.7605830">
<ele>160.58</ele>
<time>2021-06-16T14:02:39Z</time>
</trkpt>
<trkpt lat="49.0303598" lon="2.7602885">
<ele>159.76</ele>
<time>2021-06-16T14:02:42Z</time>
</trkpt>
<trkpt lat="49.0304399" lon="2.7600159">
<ele>155.48</ele>
<time>2021-06-16T14:02:45Z</time>
</trkpt>
<trkpt lat="49.0305817" lon="2.7597223">
<ele>151.62</ele>
<time>2021-06-16T14:02:48Z</time>
</trkpt>
<trkpt lat="49.0308110" lon="2.7595661">
<ele>148.13</ele>
<time>2021-06-16T14:02:50Z</time>
</trkpt>
<trkpt lat="49.0309802" lon="2.7593760">
<ele>148.35</ele>
<time>2021-06-16T14:02:52Z</time>
</trkpt>
<trkpt lat="49.0311739" lon="2.7591207">
<ele>147.66</ele>
<time>2021-06-16T14:02:54Z</time>
</trkpt>
<trkpt lat="49.0312554" lon="2.7588487">
<ele>145.66</ele>
<time>2021-06-16T14:02:56Z</time>
</trkpt>
<trkpt lat="49.0313061" lon="2.7584891">
<ele>144.72</ele>
<time>2021-06-16T14:02:59Z</time>
</trkpt>
<trkpt lat="49.0313724" lon="2.7581859">
<ele>145.01</ele>
<time>2021-06-16T14:03:02Z</time>
</trkpt>
<trkpt lat="49.0314076" lon="2.7578957">
<ele>146.31</ele>
<time>2021-06-16T14:03:06Z</time>
</trkpt>
<trkpt lat="49.0314425" lon="2.7575954">
<ele>145.69</ele>
<time>2021-06-16T14:03:12Z</time>
</trkpt>
<trkpt lat="49.0314690" lon="2.7573228">
<ele>146.57</ele>
<time>2021-06-16T14:03:18Z</time>
</trkpt>
<trkpt lat="49.0315523" lon="2.7570737">
<ele>151.03</ele>
<time>2021-06-16T14:03:26Z</time>
</trkpt>
<trkpt lat="49.0316661" lon="2.7568581">
<ele>152.91</ele>
<time>2021-06-16T14:03:33Z</time>
</trkpt>
<trkpt lat="49.0318165" lon="2.7566435">
<ele>150.70</ele>
<time>2021-06-16T14:03:39Z</time>
</trkpt>
<trkpt lat="49.0319523" lon="2.7564247">
<ele>152.27</ele>
<time>2021-06-16T14:03:46Z</time>
</trkpt>
<trkpt lat="49.0318113" lon="2.7566610">
<ele>146.85</ele>
<time>2021-06-16T14:03:58Z</time>
</trkpt>
<trkpt lat="49.0316303" lon="2.7568390">
<ele>145.33</ele>
<time>2021-06-16T14:04:04Z</time>
</trkpt>
<trkpt lat="49.0315149" lon="2.7570612">
<ele>147.47</ele>
<time>2021-06-16T14:04:10Z</time>
</trkpt>
<trkpt lat="49.0314274" lon="2.7573323">
<ele>151.59</ele>
<time>2021-06-16T14:04:16Z</time>
</trkpt>
<trkpt lat="49.0314507" lon="2.7576443">
<ele>151.55</ele>
<time>2021-06-16T14:04:24Z</time>
</trkpt>
<trkpt lat="49.0314361" lon="2.7579242">
<ele>150.16</ele>
<time>2021-06-16T14:04:27Z</time>
</trkpt>
<trkpt lat="49.0313954" lon="2.7582424">
<ele>147.35</ele>
<time>2021-06-16T14:04:30Z</time>
</trkpt>
<trkpt lat="49.0313232" lon="2.7585381">
<ele>145.53</ele>
<time>2021-06-16T14:04:34Z</time>
</trkpt>
<trkpt lat="49.0312564" lon="2.7588052">
<ele>143.30</ele>
<time>2021-06-16T14:04:39Z</time>
</trkpt>
<trkpt lat="49.0311496" lon="2.7590371">
<ele>143.68</ele>
<time>2021-06-16T14:04:48Z</time>
</trkpt>
<trkpt lat="49.0313522" lon="2.7589970">
<ele>146.01</ele>
<time>2021-06-16T14:05:01Z</time>
</trkpt>
<trkpt lat="49.0315170" lon="2.7591149">
<ele>148.42</ele>
<time>2021-06-16T14:05:05Z</time>
</trkpt>
<trkpt lat="49.0317317" lon="2.7591534">
<ele>150.01</ele>
<time>2021-06-16T14:05:15Z</time>
</trkpt>
<trkpt lat="49.0318586" lon="2.7593479">
<ele>146.85</ele>
<time>2021-06-16T14:05:21Z</time>
</trkpt>
<trkpt lat="49.0318003" lon="2.7590763">
<ele>139.27</ele>
<time>2021-06-16T14:06:47Z</time>
</trkpt>
<trkpt lat="49.0316217" lon="2.7591405">
<ele>142.97</ele>
<time>2021-06-16T14:07:00Z</time>
</trkpt>
<trkpt lat="49.0314356" lon="2.7590576">
<ele>143.57</ele>
<time>2021-06-16T14:07:11Z</time>
</trkpt>
<trkpt lat="49.0312703" lon="2.7588820">
<ele>145.69</ele>
<time>2021-06-16T14:07:23Z</time>
</trkpt>
<trkpt lat="49.0312973" lon="2.7586024">
<ele>145.50</ele>
<time>2021-06-16T14:07:31Z</time>
</trkpt>
<trkpt lat="49.0313584" lon="2.7583397">
<ele>141.58</ele>
<time>2021-06-16T14:07:40Z</time>
</trkpt>
<trkpt lat="49.0314086" lon="2.7580685">
<ele>142.39</ele>
<time>2021-06-16T14:07:47Z</time>
</trkpt>
<trkpt lat="49.0314323" lon="2.7577710">
<ele>144.35</ele>
<time>2021-06-16T14:07:55Z</time>
</trkpt>
<trkpt lat="49.0314095" lon="2.7574531">
<ele>148.82</ele>
<time>2021-06-16T14:08:03Z</time>
</trkpt>
<trkpt lat="49.0314697" lon="2.7571549">
<ele>149.02</ele>
<time>2021-06-16T14:08:11Z</time>
</trkpt>
<trkpt lat="49.0316478" lon="2.7569549">
<ele>152.02</ele>
<time>2021-06-16T14:08:17Z</time>
</trkpt>
<trkpt lat="49.0317971" lon="2.7567279">
<ele>149.41</ele>
<time>2021-06-16T14:08:21Z</time>
</trkpt>
<trkpt lat="49.0319271" lon="2.7565087">
<ele>148.01</ele>
<time>2021-06-16T14:08:24Z</time>
</trkpt>
<trkpt lat="49.0320631" lon="2.7563193">
<ele>147.87</ele>
<time>2021-06-16T14:08:27Z</time>
</trkpt>
<trkpt lat="49.0321926" lon="2.7560741">
<ele>147.90</ele>
<time>2021-06-16T14:08:31Z</time>
</trkpt>
<trkpt lat="49.0323201" lon="2.7558374">
<ele>149.33</ele>
<time>2021-06-16T14:08:35Z</time>
</trkpt>
<trkpt lat="49.0324498" lon="2.7556137">
<ele>151.81</ele>
<time>2021-06-16T14:08:39Z</time>
</trkpt>
<trkpt lat="49.0325945" lon="2.7554204">
<ele>153.02</ele>
<time>2021-06-16T14:08:43Z</time>
</trkpt>
<trkpt lat="49.0327569" lon="2.7552395">
<ele>153.47</ele>
<time>2021-06-16T14:08:47Z</time>
</trkpt>
<trkpt lat="49.0329542" lon="2.7551785">
<ele>154.42</ele>
<time>2021-06-16T14:08:51Z</time>
</trkpt>
<trkpt lat="49.0331648" lon="2.7551751">
<ele>153.74</ele>
<time>2021-06-16T14:08:55Z</time>
</trkpt>
<trkpt lat="49.0333700" lon="2.7551650">
<ele>157.01</ele>
<time>2021-06-16T14:09:01Z</time>
</trkpt>
<trkpt lat="49.0335367" lon="2.7550457">
<ele>157.79</ele>
<time>2021-06-16T14:09:05Z</time>
</trkpt>
<trkpt lat="49.0336647" lon="2.7548522">
<ele>154.81</ele>
<time>2021-06-16T14:09:08Z</time>
</trkpt>
<trkpt lat="49.0338254" lon="2.7546495">
<ele>152.01</ele>
<time>2021-06-16T14:09:12Z</time>
</trkpt>
<trkpt lat="49.0340015" lon="2.7545681">
<ele>152.02</ele>
<time>2021-06-16T14:09:16Z</time>
</trkpt>
<trkpt lat="49.0341821" lon="2.7545331">
<ele>154.30</ele>
<time>2021-06-16T14:09:21Z</time>
</trkpt>
<trkpt lat="49.0344001" lon="2.7545773">
<ele>151.52</ele>
<time>2021-06-16T14:09:25Z</time>
</trkpt>
<trkpt lat="49.0345893" lon="2.7545328">
<ele>155.45</ele>
<time>2021-06-16T14:09:30Z</time>
</trkpt>
<trkpt lat="49.0347484" lon="2.7543875">
<ele>154.63</ele>
<time>2021-06-16T14:09:35Z</time>
</trkpt>
<trkpt lat="49.0348629" lon="2.7541712">
<ele>155.82</ele>
<time>2021-06-16T14:09:41Z</time>
</trkpt>
<trkpt lat="49.0349366" lon="2.7539185">
<ele>154.77</ele>
<time>2021-06-16T14:09:46Z</time>
</trkpt>
<trkpt lat="49.0349074" lon="2.7536171">
<ele>156.40</ele>
<time>2021-06-16T14:09:51Z</time>
</trkpt>
<trkpt lat="49.0348930" lon="2.7533225">
<ele>155.42</ele>
<time>2021-06-16T14:09:57Z</time>
</trkpt>
<trkpt lat="49.0349745" lon="2.7530710">
<ele>154.39</ele>
<time>2021-06-16T14:10:04Z</time>
</trkpt>
<trkpt lat="49.0351592" lon="2.7529912">
<ele>157.60</ele>
<time>2021-06-16T14:10:09Z</time>
</trkpt>
<trkpt lat="49.0353439" lon="2.7529180">
<ele>162.65</ele>
<time>2021-06-16T14:10:15Z</time>
</trkpt>
<trkpt lat="49.0353255" lon="2.7526190">
<ele>164.28</ele>
<time>2021-06-16T14:10:40Z</time>
</trkpt>
<trkpt lat="49.0351835" lon="2.7524196">
<ele>177.78</ele>
<time>2021-06-16T14:11:25Z</time>
</trkpt>
<trkpt lat="49.0350473" lon="2.7522145">
<ele>182.86</ele>
<time>2021-06-16T14:11:34Z</time>
</trkpt>
<trkpt lat="49.0349311" lon="2.7519976">
<ele>193.40</ele>
<time>2021-06-16T14:11:44Z</time>
</trkpt>
<trkpt lat="49.0350607" lon="2.7522082">
<ele>184.68</ele>
<time>2021-06-16T14:12:14Z</time>
</trkpt>
<trkpt lat="49.0351856" lon="2.7524139">
<ele>180.32</ele>
<time>2021-06-16T14:12:21Z</time>
</trkpt>
<trkpt lat="49.0352733" lon="2.7526816">
<ele>168.64</ele>
<time>2021-06-16T14:12:28Z</time>
</trkpt>
<trkpt lat="49.0353999" lon="2.7529119">
<ele>164.48</ele>
<time>2021-06-16T14:12:33Z</time>
</trkpt>
<trkpt lat="49.0355689" lon="2.7527400">
<ele>164.85</ele>
<time>2021-06-16T14:12:54Z</time>
</trkpt>
<trkpt lat="49.0357560" lon="2.7526951">
<ele>164.89</ele>
<time>2021-06-16T14:13:02Z</time>
</trkpt>
<trkpt lat="49.0359282" lon="2.7528220">
<ele>168.57</ele>
<time>2021-06-16T14:13:09Z</time>
</trkpt>
<trkpt lat="49.0361308" lon="2.7527919">
<ele>172.93</ele>
<time>2021-06-16T14:13:17Z</time>
</trkpt>
<trkpt lat="49.0363159" lon="2.7527848">
<ele>174.41</ele>
<time>2021-06-16T14:13:23Z</time>
</trkpt>
<trkpt lat="49.0365075" lon="2.7527251">
<ele>175.00</ele>
<time>2021-06-16T14:13:33Z</time>
</trkpt>
<trkpt lat="49.0366768" lon="2.7526256">
<ele>178.42</ele>
<time>2021-06-16T14:13:40Z</time>
</trkpt>
<trkpt lat="49.0368700" lon="2.7527283">
<ele>177.32</ele>
<time>2021-06-16T14:13:48Z</time>
</trkpt>
<trkpt lat="49.0370400" lon="2.7528311">
<ele>178.98</ele>
<time>2021-06-16T14:13:56Z</time>
</trkpt>
<trkpt lat="49.0372320" lon="2.7528967">
<ele>178.66</ele>
<time>2021-06-16T14:14:03Z</time>
</trkpt>
<trkpt lat="49.0374398" lon="2.7528828">
<ele>178.50</ele>
<time>2021-06-16T14:14:11Z</time>
</trkpt>
<trkpt lat="49.0376334" lon="2.7528488">
<ele>179.04</ele>
<time>2021-06-16T14:14:19Z</time>
</trkpt>
<trkpt lat="49.0377577" lon="2.7526029">
<ele>168.66</ele>
<time>2021-06-16T14:14:44Z</time>
</trkpt>
<trkpt lat="49.0378494" lon="2.7523664">
<ele>169.65</ele>
<time>2021-06-16T14:14:52Z</time>
</trkpt>
<trkpt lat="49.0380392" lon="2.7522980">
<ele>167.94</ele>
<time>2021-06-16T14:15:01Z</time>
</trkpt>
<trkpt lat="49.0381963" lon="2.7521607">
<ele>167.31</ele>
<time>2021-06-16T14:15:08Z</time>
</trkpt>
<trkpt lat="49.0383805" lon="2.7520073">
<ele>169.29</ele>
<time>2021-06-16T14:15:14Z</time>
</trkpt>
<trkpt lat="49.0385877" lon="2.7519406">
<ele>168.06</ele>
<time>2021-06-16T14:15:19Z</time>
</trkpt>
<trkpt lat="49.0387725" lon="2.7518695">
<ele>167.38</ele>
<time>2021-06-16T14:15:23Z</time>
</trkpt>
<trkpt lat="49.0389422" lon="2.7517212">
<ele>164.83</ele>
<time>2021-06-16T14:15:27Z</time>
</trkpt>
<trkpt lat="49.0388459" lon="2.7514530">
<ele>168.03</ele>
<time>2021-06-16T14:16:13Z</time>
</trkpt>
<trkpt lat="49.0388151" lon="2.7511251">
<ele>165.87</ele>
<time>2021-06-16T14:16:18Z</time>
</trkpt>
<trkpt lat="49.0387503" lon="2.7508346">
<ele>165.37</ele>
<time>2021-06-16T14:16:21Z</time>
</trkpt>
<trkpt lat="49.0385932" lon="2.7506763">
<ele>164.19</ele>
<time>2021-06-16T14:16:26Z</time>
</trkpt>
<trkpt lat="49.0384078" lon="2.7505888">
<ele>162.61</ele>
<time>2021-06-16T14:16:36Z</time>
</trkpt>
<trkpt lat="49.0382251" lon="2.7505768">
<ele>164.69</ele>
<time>2021-06-16T14:16:46Z</time>
</trkpt>
<trkpt lat="49.0384333" lon="2.7506143">
<ele>161.59</ele>
<time>2021-06-16T14:16:59Z</time>
</trkpt>
<trkpt lat="49.0386849" lon="2.7506984">
<ele>163.87</ele>
<time>2021-06-16T14:17:04Z</time>
</trkpt>
<trkpt lat="49.0388027" lon="2.7509193">
<ele>162.82</ele>
<time>2021-06-16T14:17:09Z</time>
</trkpt>
<trkpt lat="49.0388035" lon="2.7512139">
<ele>163.49</ele>
<time>2021-06-16T14:17:14Z</time>
</trkpt>
<trkpt lat="49.0389330" lon="2.7514512">
<ele>164.21</ele>
<time>2021-06-16T14:17:19Z</time>
</trkpt>
<trkpt lat="49.0391860" lon="2.7515055">
<ele>163.68</ele>
<time>2021-06-16T14:17:23Z</time>
</trkpt>
<trkpt lat="49.0393541" lon="2.7512500">
<ele>163.13</ele>
<time>2021-06-16T14:17:27Z</time>
</trkpt>
<trkpt lat="49.0394450" lon="2.7510045">
<ele>163.25</ele>
<time>2021-06-16T14:17:30Z</time>
</trkpt>
<trkpt lat="49.0395441" lon="2.7507647">
<ele>162.26</ele>
<time>2021-06-16T14:17:33Z</time>
</trkpt>
<trkpt lat="49.0396712" lon="2.7505057">
<ele>160.99</ele>
<time>2021-06-16T14:17:37Z</time>
</trkpt>
<trkpt lat="49.0398519" lon="2.7504968">
<ele>160.12</ele>
<time>2021-06-16T14:17:41Z</time>
</trkpt>
<trkpt lat="49.0400769" lon="2.7507007">
<ele>155.21</ele>
<time>2021-06-16T14:17:45Z</time>
</trkpt>
<trkpt lat="49.0402968" lon="2.7508244">
<ele>151.20</ele>
<time>2021-06-16T14:17:48Z</time>
</trkpt>
<trkpt lat="49.0404505" lon="2.7510285">
<ele>149.84</ele>
<time>2021-06-16T14:17:51Z</time>
</trkpt>
<trkpt lat="49.0404919" lon="2.7513561">
<ele>150.53</ele>
<time>2021-06-16T14:17:55Z</time>
</trkpt>
<trkpt lat="49.0407006" lon="2.7514230">
<ele>154.02</ele>
<time>2021-06-16T14:18:06Z</time>
</trkpt>
<trkpt lat="49.0409159" lon="2.7512870">
<ele>153.01</ele>
<time>2021-06-16T14:18:09Z</time>
</trkpt>
<trkpt lat="49.0411502" lon="2.7512077">
<ele>151.67</ele>
<time>2021-06-16T14:18:12Z</time>
</trkpt>
<trkpt lat="49.0413724" lon="2.7512208">
<ele>150.91</ele>
<time>2021-06-16T14:18:15Z</time>
</trkpt>
<trkpt lat="49.0415819" lon="2.7513378">
<ele>149.82</ele>
<time>2021-06-16T14:18:21Z</time>
</trkpt>
<trkpt lat="49.0417843" lon="2.7513648">
<ele>150.28</ele>
<time>2021-06-16T14:18:28Z</time>
</trkpt>
<trkpt lat="49.0419648" lon="2.7513887">
<ele>150.02</ele>
<time>2021-06-16T14:18:32Z</time>
</trkpt>
<trkpt lat="49.0421651" lon="2.7514674">
<ele>149.57</ele>
<time>2021-06-16T14:18:35Z</time>
</trkpt>
<trkpt lat="49.0423535" lon="2.7515375">
<ele>147.21</ele>
<time>2021-06-16T14:18:38Z</time>
</trkpt>
<trkpt lat="49.0425484" lon="2.7516022">
<ele>147.97</ele>
<time>2021-06-16T14:18:41Z</time>
</trkpt>
<trkpt lat="49.0427385" lon="2.7516862">
<ele>147.71</ele>
<time>2021-06-16T14:18:46Z</time>
</trkpt>
<trkpt lat="49.0429464" lon="2.7517434">
<ele>147.19</ele>
<time>2021-06-16T14:18:51Z</time>
</trkpt>
<trkpt lat="49.0431409" lon="2.7517412">
<ele>149.93</ele>
<time>2021-06-16T14:18:58Z</time>
</trkpt>
<trkpt lat="49.0433522" lon="2.7515492">
<ele>152.26</ele>
<time>2021-06-16T14:19:21Z</time>
</trkpt>
<trkpt lat="49.0435091" lon="2.7513368">
<ele>151.61</ele>
<time>2021-06-16T14:19:24Z</time>
</trkpt>
<trkpt lat="49.0436152" lon="2.7510657">
<ele>150.39</ele>
<time>2021-06-16T14:19:26Z</time>
</trkpt>
<trkpt lat="49.0437359" lon="2.7506909">
<ele>147.36</ele>
<time>2021-06-16T14:19:29Z</time>
</trkpt>
<trkpt lat="49.0438029" lon="2.7504350">
<ele>144.89</ele>
<time>2021-06-16T14:19:31Z</time>
</trkpt>
<trkpt lat="49.0438151" lon="2.7500423">
<ele>138.58</ele>
<time>2021-06-16T14:19:34Z</time>
</trkpt>
<trkpt lat="49.0438488" lon="2.7497658">
<ele>136.50</ele>
<time>2021-06-16T14:19:36Z</time>
</trkpt>
<trkpt lat="49.0438935" lon="2.7494713">
<ele>134.68</ele>
<time>2021-06-16T14:19:38Z</time>
</trkpt>
<trkpt lat="49.0439087" lon="2.7491461">
<ele>134.63</ele>
<time>2021-06-16T14:19:41Z</time>
</trkpt>
<trkpt lat="49.0437968" lon="2.7489026">
<ele>130.44</ele>
<time>2021-06-16T14:19:45Z</time>
</trkpt>
<trkpt lat="49.0436150" lon="2.7487401">
<ele>129.44</ele>
<time>2021-06-16T14:19:48Z</time>
</trkpt>
<trkpt lat="49.0434312" lon="2.7486872">
<ele>130.08</ele>
<time>2021-06-16T14:19:51Z</time>
</trkpt>
<trkpt lat="49.0432434" lon="2.7485972">
<ele>130.29</ele>
<time>2021-06-16T14:19:54Z</time>
</trkpt>
<trkpt lat="49.0430443" lon="2.7484625">
<ele>128.76</ele>
<time>2021-06-16T14:19:57Z</time>
</trkpt>
<trkpt lat="49.0428912" lon="2.7483102">
<ele>121.64</ele>
<time>2021-06-16T14:20:28Z</time>
</trkpt>
<trkpt lat="49.0430530" lon="2.7484386">
<ele>122.50</ele>
<time>2021-06-16T14:20:49Z</time>
</trkpt>
<trkpt lat="49.0428951" lon="2.7485842">
<ele>123.56</ele>
<time>2021-06-16T14:21:05Z</time>
</trkpt>
<trkpt lat="49.0427318" lon="2.7487168">
<ele>127.28</ele>
<time>2021-06-16T14:21:17Z</time>
</trkpt>
<trkpt lat="49.0426430" lon="2.7489752">
<ele>129.66</ele>
<time>2021-06-16T14:21:23Z</time>
</trkpt>
<trkpt lat="49.0424934" lon="2.7491837">
<ele>133.28</ele>
<time>2021-06-16T14:21:30Z</time>
</trkpt>
<trkpt lat="49.0423549" lon="2.7494141">
<ele>134.72</ele>
<time>2021-06-16T14:21:37Z</time>
</trkpt>
<trkpt lat="49.0421733" lon="2.7495374">
<ele>136.88</ele>
<time>2021-06-16T14:21:50Z</time>
</trkpt>
<trkpt lat="49.0419866" lon="2.7494344">
<ele>138.26</ele>
<time>2021-06-16T14:21:56Z</time>
</trkpt>
<trkpt lat="49.0418444" lon="2.7492322">
<ele>136.36</ele>
<time>2021-06-16T14:22:05Z</time>
</trkpt>
<trkpt lat="49.0417357" lon="2.7489866">
<ele>131.80</ele>
<time>2021-06-16T14:22:11Z</time>
</trkpt>
<trkpt lat="49.0415841" lon="2.7488091">
<ele>128.62</ele>
<time>2021-06-16T14:22:14Z</time>
</trkpt>
<trkpt lat="49.0414579" lon="2.7485800">
<ele>126.29</ele>
<time>2021-06-16T14:22:19Z</time>
</trkpt>
<trkpt lat="49.0412908" lon="2.7483691">
<ele>124.59</ele>
<time>2021-06-16T14:22:24Z</time>
</trkpt>
<trkpt lat="49.0411444" lon="2.7481177">
<ele>123.52</ele>
<time>2021-06-16T14:22:28Z</time>
</trkpt>
<trkpt lat="49.0409639" lon="2.7479556">
<ele>125.63</ele>
<time>2021-06-16T14:22:31Z</time>
</trkpt>
<trkpt lat="49.0408014" lon="2.7477534">
<ele>129.13</ele>
<time>2021-06-16T14:22:36Z</time>
</trkpt>
<trkpt lat="49.0407867" lon="2.7474411">
<ele>126.63</ele>
<time>2021-06-16T14:22:43Z</time>
</trkpt>
<trkpt lat="49.0406971" lon="2.7471753">
<ele>127.97</ele>
<time>2021-06-16T14:22:48Z</time>
</trkpt>
<trkpt lat="49.0405151" lon="2.7470673">
<ele>130.54</ele>
<time>2021-06-16T14:22:55Z</time>
</trkpt>
<trkpt lat="49.0403258" lon="2.7470137">
<ele>134.11</ele>
<time>2021-06-16T14:23:03Z</time>
</trkpt>
<trkpt lat="49.0401389" lon="2.7470602">
<ele>137.54</ele>
<time>2021-06-16T14:23:42Z</time>
</trkpt>
<trkpt lat="49.0399640" lon="2.7471848">
<ele>140.31</ele>
<time>2021-06-16T14:23:53Z</time>
</trkpt>
<trkpt lat="49.0398203" lon="2.7473877">
<ele>145.66</ele>
<time>2021-06-16T14:24:04Z</time>
</trkpt>
<trkpt lat="49.0396973" lon="2.7475916">
<ele>143.24</ele>
<time>2021-06-16T14:24:16Z</time>
</trkpt>
<trkpt lat="49.0395813" lon="2.7478116">
<ele>146.02</ele>
<time>2021-06-16T14:24:26Z</time>
</trkpt>
<trkpt lat="49.0394771" lon="2.7480426">
<ele>145.59</ele>
<time>2021-06-16T14:24:37Z</time>
</trkpt>
<trkpt lat="49.0394343" lon="2.7483150">
<ele>146.32</ele>
<time>2021-06-16T14:24:50Z</time>
</trkpt>
<trkpt lat="49.0394988" lon="2.7480254">
<ele>143.84</ele>
<time>2021-06-16T14:25:39Z</time>
</trkpt>
<trkpt lat="49.0396025" lon="2.7477584">
<ele>146.29</ele>
<time>2021-06-16T14:25:49Z</time>
</trkpt>
<trkpt lat="49.0397487" lon="2.7475176">
<ele>140.45</ele>
<time>2021-06-16T14:25:57Z</time>
</trkpt>
<trkpt lat="49.0398717" lon="2.7472936">
<ele>137.79</ele>
<time>2021-06-16T14:26:02Z</time>
</trkpt>
<trkpt lat="49.0400052" lon="2.7470597">
<ele>138.38</ele>
<time>2021-06-16T14:26:06Z</time>
</trkpt>
<trkpt lat="49.0401749" lon="2.7469337">
<ele>135.74</ele>
<time>2021-06-16T14:26:11Z</time>
</trkpt>
<trkpt lat="49.0403733" lon="2.7468988">
<ele>136.30</ele>
<time>2021-06-16T14:26:19Z</time>
</trkpt>
<trkpt lat="49.0405470" lon="2.7470314">
<ele>134.33</ele>
<time>2021-06-16T14:26:24Z</time>
</trkpt>
<trkpt lat="49.0407304" lon="2.7472031">
<ele>133.14</ele>
<time>2021-06-16T14:26:29Z</time>
</trkpt>
<trkpt lat="49.0408321" lon="2.7474366">
<ele>130.69</ele>
<time>2021-06-16T14:26:35Z</time>
</trkpt>
<trkpt lat="49.0408684" lon="2.7471295">
<ele>128.46</ele>
<time>2021-06-16T14:26:43Z</time>
</trkpt>
<trkpt lat="49.0409250" lon="2.7468325">
<ele>125.21</ele>
<time>2021-06-16T14:26:51Z</time>
</trkpt>
<trkpt lat="49.0408654" lon="2.7465632">
<ele>125.88</ele>
<time>2021-06-16T14:26:58Z</time>
</trkpt>
<trkpt lat="49.0407105" lon="2.7463635">
<ele>124.98</ele>
<time>2021-06-16T14:27:03Z</time>
</trkpt>
<trkpt lat="49.0405379" lon="2.7462098">
<ele>126.12</ele>
<time>2021-06-16T14:27:08Z</time>
</trkpt>
<trkpt lat="49.0403959" lon="2.7459674">
<ele>126.13</ele>
<time>2021-06-16T14:27:15Z</time>
</trkpt>
<trkpt lat="49.0402626" lon="2.7457184">
<ele>123.99</ele>
<time>2021-06-16T14:27:19Z</time>
</trkpt>
<trkpt lat="49.0401166" lon="2.7454579">
<ele>122.48</ele>
<time>2021-06-16T14:27:26Z</time>
</trkpt>
<trkpt lat="49.0399760" lon="2.7451870">
<ele>124.10</ele>
<time>2021-06-16T14:27:30Z</time>
</trkpt>
<trkpt lat="49.0398271" lon="2.7449859">
<ele>125.64</ele>
<time>2021-06-16T14:27:35Z</time>
</trkpt>
<trkpt lat="49.0396491" lon="2.7448344">
<ele>128.36</ele>
<time>2021-06-16T14:27:41Z</time>
</trkpt>
<trkpt lat="49.0394441" lon="2.7449282">
<ele>132.45</ele>
<time>2021-06-16T14:27:47Z</time>
</trkpt>
<trkpt lat="49.0394547" lon="2.7452295">
<ele>136.43</ele>
<time>2021-06-16T14:27:53Z</time>
</trkpt>
<trkpt lat="49.0395151" lon="2.7454994">
<ele>138.47</ele>
<time>2021-06-16T14:27:59Z</time>
</trkpt>
<trkpt lat="49.0395455" lon="2.7458088">
<ele>136.78</ele>
<time>2021-06-16T14:28:06Z</time>
</trkpt>
<trkpt lat="49.0393630" lon="2.7458994">
<ele>137.54</ele>
<time>2021-06-16T14:28:15Z</time>
</trkpt>
<trkpt lat="49.0392659" lon="2.7456348">
<ele>133.43</ele>
<time>2021-06-16T14:28:22Z</time>
</trkpt>
<trkpt lat="49.0391345" lon="2.7453877">
<ele>133.66</ele>
<time>2021-06-16T14:28:29Z</time>
</trkpt>
<trkpt lat="49.0389365" lon="2.7454529">
<ele>137.17</ele>
<time>2021-06-16T14:28:36Z</time>
</trkpt>
<trkpt lat="49.0389307" lon="2.7457291">
<ele>140.54</ele>
<time>2021-06-16T14:28:43Z</time>
</trkpt>
<trkpt lat="49.0388715" lon="2.7460311">
<ele>142.98</ele>
<time>2021-06-16T14:28:49Z</time>
</trkpt>
<trkpt lat="49.0387973" lon="2.7462886">
<ele>147.78</ele>
<time>2021-06-16T14:28:54Z</time>
</trkpt>
<trkpt lat="49.0386669" lon="2.7465405">
<ele>149.82</ele>
<time>2021-06-16T14:28:59Z</time>
</trkpt>
<trkpt lat="49.0385254" lon="2.7467967">
<ele>151.17</ele>
<time>2021-06-16T14:29:04Z</time>
</trkpt>
<trkpt lat="49.0384378" lon="2.7470840">
<ele>150.49</ele>
<time>2021-06-16T14:29:10Z</time>
</trkpt>
<trkpt lat="49.0383377" lon="2.7473311">
<ele>147.68</ele>
<time>2021-06-16T14:29:14Z</time>
</trkpt>
<trkpt lat="49.0382482" lon="2.7475843">
<ele>147.49</ele>
<time>2021-06-16T14:29:19Z</time>
</trkpt>
<trkpt lat="49.0382202" lon="2.7479066">
<ele>147.43</ele>
<time>2021-06-16T14:29:25Z</time>
</trkpt>
<trkpt lat="49.0382618" lon="2.7481845">
<ele>149.17</ele>
<time>2021-06-16T14:29:30Z</time>
</trkpt>
<trkpt lat="49.0382496" lon="2.7484586">
<ele>151.22</ele>
<time>2021-06-16T14:29:37Z</time>
</trkpt>
<trkpt lat="49.0380693" lon="2.7483793">
<ele>152.10</ele>
<time>2021-06-16T14:29:44Z</time>
</trkpt>
<trkpt lat="49.0379446" lon="2.7481423">
<ele>153.66</ele>
<time>2021-06-16T14:29:50Z</time>
</trkpt>
<trkpt lat="49.0378431" lon="2.7478260">
<ele>153.82</ele>
<time>2021-06-16T14:29:54Z</time>
</trkpt>
<trkpt lat="49.0377626" lon="2.7475278">
<ele>154.11</ele>
<time>2021-06-16T14:29:58Z</time>
</trkpt>
<trkpt lat="49.0376783" lon="2.7472728">
<ele>153.01</ele>
<time>2021-06-16T14:30:02Z</time>
</trkpt>
<trkpt lat="49.0377296" lon="2.7469915">
<ele>154.17</ele>
<time>2021-06-16T14:30:06Z</time>
</trkpt>
<trkpt lat="49.0378776" lon="2.7468021">
<ele>155.62</ele>
<time>2021-06-16T14:30:10Z</time>
</trkpt>
<trkpt lat="49.0379829" lon="2.7465283">
<ele>153.72</ele>
<time>2021-06-16T14:30:16Z</time>
</trkpt>
<trkpt lat="49.0380414" lon="2.7462422">
<ele>153.38</ele>
<time>2021-06-16T14:30:20Z</time>
</trkpt>
<trkpt lat="49.0380951" lon="2.7459273">
<ele>153.05</ele>
<time>2021-06-16T14:30:23Z</time>
</trkpt>
<trkpt lat="49.0380368" lon="2.7456587">
<ele>152.10</ele>
<time>2021-06-16T14:30:29Z</time>
</trkpt>
<trkpt lat="49.0379797" lon="2.7453874">
<ele>153.90</ele>
<time>2021-06-16T14:30:34Z</time>
</trkpt>
<trkpt lat="49.0379186" lon="2.7451263">
<ele>153.84</ele>
<time>2021-06-16T14:30:37Z</time>
</trkpt>
<trkpt lat="49.0378476" lon="2.7448448">
<ele>155.64</ele>
<time>2021-06-16T14:30:41Z</time>
</trkpt>
<trkpt lat="49.0377623" lon="2.7445810">
<ele>153.40</ele>
<time>2021-06-16T14:30:46Z</time>
</trkpt>
<trkpt lat="49.0376354" lon="2.7443040">
<ele>153.59</ele>
<time>2021-06-16T14:30:49Z</time>
</trkpt>
<trkpt lat="49.0374636" lon="2.7442006">
<ele>156.90</ele>
<time>2021-06-16T14:30:53Z</time>
</trkpt>
<trkpt lat="49.0372540" lon="2.7441731">
<ele>156.04</ele>
<time>2021-06-16T14:30:59Z</time>
</trkpt>
<trkpt lat="49.0370813" lon="2.7440934">
<ele>157.82</ele>
<time>2021-06-16T14:31:04Z</time>
</trkpt>
<trkpt lat="49.0368836" lon="2.7439879">
<ele>158.66</ele>
<time>2021-06-16T14:31:08Z</time>
</trkpt>
<trkpt lat="49.0367005" lon="2.7439388">
<ele>159.47</ele>
<time>2021-06-16T14:31:12Z</time>
</trkpt>
<trkpt lat="49.0365045" lon="2.7439436">
<ele>161.27</ele>
<time>2021-06-16T14:31:17Z</time>
</trkpt>
<trkpt lat="49.0362927" lon="2.7440325">
<ele>161.72</ele>
<time>2021-06-16T14:31:23Z</time>
</trkpt>
<trkpt lat="49.0360766" lon="2.7441003">
<ele>161.82</ele>
<time>2021-06-16T14:31:27Z</time>
</trkpt>
<trkpt lat="49.0358754" lon="2.7441755">
<ele>162.80</ele>
<time>2021-06-16T14:31:33Z</time>
</trkpt>
<trkpt lat="49.0357054" lon="2.7442748">
<ele>165.01</ele>
<time>2021-06-16T14:31:37Z</time>
</trkpt>
<trkpt lat="49.0354989" lon="2.7443882">
<ele>167.48</ele>
<time>2021-06-16T14:31:41Z</time>
</trkpt>
<trkpt lat="49.0353131" lon="2.7444378">
<ele>168.94</ele>
<time>2021-06-16T14:31:47Z</time>
</trkpt>
<trkpt lat="49.0351316" lon="2.7444900">
<ele>176.18</ele>
<time>2021-06-16T14:32:38Z</time>
</trkpt>
<trkpt lat="49.0349428" lon="2.7445392">
<ele>175.50</ele>
<time>2021-06-16T14:32:43Z</time>
</trkpt>
<trkpt lat="49.0347613" lon="2.7445770">
<ele>177.13</ele>
<time>2021-06-16T14:32:57Z</time>
</trkpt>
<trkpt lat="49.0345745" lon="2.7446928">
<ele>179.70</ele>
<time>2021-06-16T14:33:33Z</time>
</trkpt>
<trkpt lat="49.0344251" lon="2.7449130">
<ele>179.97</ele>
<time>2021-06-16T14:33:37Z</time>
</trkpt>
<trkpt lat="49.0342929" lon="2.7451637">
<ele>178.98</ele>
<time>2021-06-16T14:33:40Z</time>
</trkpt>
<trkpt lat="49.0341327" lon="2.7453326">
<ele>183.68</ele>
<time>2021-06-16T14:33:45Z</time>
</trkpt>
<trkpt lat="49.0339698" lon="2.7454835">
<ele>183.26</ele>
<time>2021-06-16T14:33:51Z</time>
</trkpt>
<trkpt lat="49.0337920" lon="2.7455677">
<ele>181.26</ele>
<time>2021-06-16T14:33:55Z</time>
</trkpt>
<trkpt lat="49.0336158" lon="2.7457109">
<ele>182.16</ele>
<time>2021-06-16T14:34:00Z</time>
</trkpt>
<trkpt lat="49.0334278" lon="2.7458614">
<ele>180.66</ele>
<time>2021-06-16T14:34:05Z</time>
</trkpt>
<trkpt lat="49.0332172" lon="2.7460087">
<ele>181.05</ele>
<time>2021-06-16T14:34:11Z</time>
</trkpt>
<trkpt lat="49.0330327" lon="2.7459011">
<ele>177.19</ele>
<time>2021-06-16T14:34:18Z</time>
</trkpt>
<trkpt lat="49.0328397" lon="2.7457085">
<ele>168.09</ele>
<time>2021-06-16T14:34:21Z</time>
</trkpt>
<trkpt lat="49.0327349" lon="2.7454846">
<ele>165.37</ele>
<time>2021-06-16T14:34:26Z</time>
</trkpt>
<trkpt lat="49.0325581" lon="2.7453591">
<ele>161.77</ele>
<time>2021-06-16T14:34:29Z</time>
</trkpt>
<trkpt lat="49.0324296" lon="2.7451662">
<ele>160.81</ele>
<time>2021-06-16T14:34:34Z</time>
</trkpt>
<trkpt lat="49.0322645" lon="2.7452951">
<ele>161.64</ele>
<time>2021-06-16T14:34:58Z</time>
</trkpt>
<trkpt lat="49.0319459" lon="2.7448850">
<ele>160.54</ele>
<time>2021-06-16T14:35:34Z</time>
</trkpt>
<trkpt lat="49.0317373" lon="2.7447099">
<ele>155.67</ele>
<time>2021-06-16T14:35:39Z</time>
</trkpt>
<trkpt lat="49.0315186" lon="2.7444453">
<ele>147.99</ele>
<time>2021-06-16T14:35:43Z</time>
</trkpt>
<trkpt lat="49.0312988" lon="2.7442269">
<ele>148.06</ele>
<time>2021-06-16T14:35:44Z</time>
</trkpt>
<trkpt lat="49.0311700" lon="2.7440124">
<ele>148.79</ele>
<time>2021-06-16T14:35:47Z</time>
</trkpt>
<trkpt lat="49.0310278" lon="2.7437496">
<ele>145.60</ele>
<time>2021-06-16T14:35:49Z</time>
</trkpt>
<trkpt lat="49.0308517" lon="2.7435442">
<ele>140.94</ele>
<time>2021-06-16T14:35:51Z</time>
</trkpt>
<trkpt lat="49.0307267" lon="2.7433124">
<ele>138.84</ele>
<time>2021-06-16T14:35:53Z</time>
</trkpt>
<trkpt lat="49.0305948" lon="2.7430731">
<ele>137.37</ele>
<time>2021-06-16T14:35:56Z</time>
</trkpt>
<trkpt lat="49.0306197" lon="2.7427743">
<ele>134.33</ele>
<time>2021-06-16T14:36:01Z</time>
</trkpt>
<trkpt lat="49.0307168" lon="2.7424878">
<ele>131.46</ele>
<time>2021-06-16T14:36:05Z</time>
</trkpt>
<trkpt lat="49.0308299" lon="2.7422505">
<ele>129.57</ele>
<time>2021-06-16T14:36:09Z</time>
</trkpt>
<trkpt lat="49.0309385" lon="2.7419510">
<ele>127.48</ele>
<time>2021-06-16T14:36:13Z</time>
</trkpt>
<trkpt lat="49.0311050" lon="2.7417711">
<ele>122.41</ele>
<time>2021-06-16T14:36:17Z</time>
</trkpt>
<trkpt lat="49.0312722" lon="2.7415866">
<ele>122.41</ele>
<time>2021-06-16T14:36:21Z</time>
</trkpt>
<trkpt lat="49.0313599" lon="2.7413040">
<ele>122.14</ele>
<time>2021-06-16T14:36:25Z</time>
</trkpt>
<trkpt lat="49.0314533" lon="2.7410680">
<ele>122.19</ele>
<time>2021-06-16T14:36:29Z</time>
</trkpt>
<trkpt lat="49.0315689" lon="2.7407920">
<ele>121.32</ele>
<time>2021-06-16T14:36:33Z</time>
</trkpt>
<trkpt lat="49.0316166" lon="2.7404772">
<ele>120.10</ele>
<time>2021-06-16T14:36:37Z</time>
</trkpt>
<trkpt lat="49.0315701" lon="2.7401946">
<ele>118.53</ele>
<time>2021-06-16T14:36:40Z</time>
</trkpt>
<trkpt lat="49.0315324" lon="2.7399161">
<ele>118.53</ele>
<time>2021-06-16T14:36:43Z</time>
</trkpt>
<trkpt lat="49.0315206" lon="2.7396324">
<ele>117.78</ele>
<time>2021-06-16T14:36:46Z</time>
</trkpt>
<trkpt lat="49.0315213" lon="2.7393533">
<ele>117.29</ele>
<time>2021-06-16T14:36:49Z</time>
</trkpt>
<trkpt lat="49.0315145" lon="2.7390599">
<ele>117.06</ele>
<time>2021-06-16T14:36:52Z</time>
</trkpt>
<trkpt lat="49.0315093" lon="2.7387703">
<ele>117.31</ele>
<time>2021-06-16T14:36:55Z</time>
</trkpt>
<trkpt lat="49.0315064" lon="2.7384945">
<ele>117.14</ele>
<time>2021-06-16T14:36:58Z</time>
</trkpt>
<trkpt lat="49.0315060" lon="2.7381856">
<ele>115.91</ele>
<time>2021-06-16T14:37:03Z</time>
</trkpt>
<trkpt lat="49.0313352" lon="2.7380170">
<ele>114.38</ele>
<time>2021-06-16T14:37:09Z</time>
</trkpt>
<trkpt lat="49.0311216" lon="2.7379356">
<ele>113.45</ele>
<time>2021-06-16T14:37:13Z</time>
</trkpt>
<trkpt lat="49.0309316" lon="2.7378349">
<ele>113.62</ele>
<time>2021-06-16T14:37:16Z</time>
</trkpt>
<trkpt lat="49.0307463" lon="2.7376832">
<ele>112.28</ele>
<time>2021-06-16T14:37:19Z</time>
</trkpt>
<trkpt lat="49.0305618" lon="2.7375777">
<ele>111.80</ele>
<time>2021-06-16T14:37:22Z</time>
</trkpt>
<trkpt lat="49.0303786" lon="2.7374973">
<ele>110.68</ele>
<time>2021-06-16T14:37:25Z</time>
</trkpt>
<trkpt lat="49.0301919" lon="2.7374359">
<ele>108.55</ele>
<time>2021-06-16T14:37:28Z</time>
</trkpt>
<trkpt lat="49.0299906" lon="2.7374196">
<ele>106.75</ele>
<time>2021-06-16T14:37:31Z</time>
</trkpt>
<trkpt lat="49.0298028" lon="2.7374003">
<ele>105.23</ele>
<time>2021-06-16T14:37:35Z</time>
</trkpt>
<trkpt lat="49.0298448" lon="2.7370958">
<ele>107.29</ele>
<time>2021-06-16T14:37:52Z</time>
</trkpt>
<trkpt lat="49.0299148" lon="2.7368340">
<ele>108.10</ele>
<time>2021-06-16T14:37:57Z</time>
</trkpt>
<trkpt lat="49.0299952" lon="2.7365271">
<ele>107.86</ele>
<time>2021-06-16T14:38:02Z</time>
</trkpt>
<trkpt lat="49.0300462" lon="2.7362601">
<ele>107.91</ele>
<time>2021-06-16T14:38:06Z</time>
</trkpt>
<trkpt lat="49.0300840" lon="2.7359482">
<ele>108.10</ele>
<time>2021-06-16T14:38:11Z</time>
</trkpt>
<trkpt lat="49.0300855" lon="2.7356550">
<ele>107.74</ele>
<time>2021-06-16T14:38:18Z</time>
</trkpt>
<trkpt lat="49.0300962" lon="2.7353603">
<ele>108.56</ele>
<time>2021-06-16T14:38:23Z</time>
</trkpt>
<trkpt lat="49.0302445" lon="2.7351845">
<ele>110.69</ele>
<time>2021-06-16T14:38:30Z</time>
</trkpt>
<trkpt lat="49.0304334" lon="2.7351893">
<ele>111.22</ele>
<time>2021-06-16T14:38:35Z</time>
</trkpt>
<trkpt lat="49.0306365" lon="2.7352761">
<ele>113.70</ele>
<time>2021-06-16T14:38:41Z</time>
</trkpt>
<trkpt lat="49.0308194" lon="2.7353198">
<ele>117.41</ele>
<time>2021-06-16T14:38:46Z</time>
</trkpt>
<trkpt lat="49.0310405" lon="2.7353968">
<ele>117.04</ele>
<time>2021-06-16T14:38:49Z</time>
</trkpt>
<trkpt lat="49.0311255" lon="2.7356592">
<ele>119.68</ele>
<time>2021-06-16T14:38:54Z</time>
</trkpt>
<trkpt lat="49.0313039" lon="2.7356153">
<ele>126.65</ele>
<time>2021-06-16T14:39:04Z</time>
</trkpt>
<trkpt lat="49.0314421" lon="2.7353739">
<ele>122.74</ele>
<time>2021-06-16T14:39:10Z</time>
</trkpt>
<trkpt lat="49.0315100" lon="2.7350877">
<ele>123.05</ele>
<time>2021-06-16T14:39:16Z</time>
</trkpt>
<trkpt lat="49.0317014" lon="2.7349695">
<ele>126.62</ele>
<time>2021-06-16T14:39:21Z</time>
</trkpt>
<trkpt lat="49.0318912" lon="2.7349161">
<ele>127.75</ele>
<time>2021-06-16T14:39:25Z</time>
</trkpt>
<trkpt lat="49.0320749" lon="2.7348677">
<ele>129.98</ele>
<time>2021-06-16T14:39:30Z</time>
</trkpt>
<trkpt lat="49.0322166" lon="2.7346851">
<ele>131.03</ele>
<time>2021-06-16T14:39:34Z</time>
</trkpt>
<trkpt lat="49.0323731" lon="2.7344674">
<ele>126.28</ele>
<time>2021-06-16T14:39:38Z</time>
</trkpt>
<trkpt lat="49.0325409" lon="2.7343377">
<ele>126.02</ele>
<time>2021-06-16T14:39:42Z</time>
</trkpt>
<trkpt lat="49.0327522" lon="2.7343659">
<ele>126.31</ele>
<time>2021-06-16T14:39:46Z</time>
</trkpt>
<trkpt lat="49.0329426" lon="2.7342657">
<ele>126.64</ele>
<time>2021-06-16T14:39:50Z</time>
</trkpt>
<trkpt lat="49.0331693" lon="2.7342048">
<ele>128.06</ele>
<time>2021-06-16T14:39:54Z</time>
</trkpt>
<trkpt lat="49.0333326" lon="2.7339892">
<ele>126.20</ele>
<time>2021-06-16T14:39:58Z</time>
</trkpt>
<trkpt lat="49.0334963" lon="2.7337965">
<ele>122.05</ele>
<time>2021-06-16T14:40:02Z</time>
</trkpt>
<trkpt lat="49.0334777" lon="2.7335010">
<ele>119.63</ele>
<time>2021-06-16T14:40:06Z</time>
</trkpt>
<trkpt lat="49.0333594" lon="2.7332864">
<ele>118.41</ele>
<time>2021-06-16T14:40:16Z</time>
</trkpt>
<trkpt lat="49.0332755" lon="2.7330183">
<ele>117.69</ele>
<time>2021-06-16T14:40:20Z</time>
</trkpt>
<trkpt lat="49.0333587" lon="2.7327701">
<ele>112.41</ele>
<time>2021-06-16T14:40:26Z</time>
</trkpt>
<trkpt lat="49.0331975" lon="2.7326012">
<ele>116.26</ele>
<time>2021-06-16T14:41:38Z</time>
</trkpt>
<trkpt lat="49.0329865" lon="2.7326294">
<ele>114.25</ele>
<time>2021-06-16T14:41:44Z</time>
</trkpt>
<trkpt lat="49.0327763" lon="2.7327025">
<ele>115.71</ele>
<time>2021-06-16T14:41:50Z</time>
</trkpt>
<trkpt lat="49.0325802" lon="2.7327698">
<ele>112.55</ele>
<time>2021-06-16T14:41:55Z</time>
</trkpt>
<trkpt lat="49.0323991" lon="2.7327982">
<ele>112.62</ele>
<time>2021-06-16T14:41:59Z</time>
</trkpt>
<trkpt lat="49.0321845" lon="2.7327563">
<ele>111.00</ele>
<time>2021-06-16T14:42:03Z</time>
</trkpt>
<trkpt lat="49.0319764" lon="2.7327939">
<ele>108.82</ele>
<time>2021-06-16T14:42:07Z</time>
</trkpt>
<trkpt lat="49.0317815" lon="2.7328081">
<ele>112.64</ele>
<time>2021-06-16T14:42:13Z</time>
</trkpt>
<trkpt lat="49.0315986" lon="2.7328916">
<ele>116.53</ele>
<time>2021-06-16T14:42:20Z</time>
</trkpt>
<trkpt lat="49.0314293" lon="2.7330316">
<ele>115.91</ele>
<time>2021-06-16T14:42:31Z</time>
</trkpt>
<trkpt lat="49.0312496" lon="2.7331253">
<ele>113.02</ele>
<time>2021-06-16T14:42:38Z</time>
</trkpt>
<trkpt lat="49.0310687" lon="2.7331766">
<ele>109.97</ele>
<time>2021-06-16T14:42:46Z</time>
</trkpt>
<trkpt lat="49.0309009" lon="2.7333083">
<ele>109.94</ele>
<time>2021-06-16T14:42:57Z</time>
</trkpt>
<trkpt lat="49.0307247" lon="2.7333690">
<ele>110.32</ele>
<time>2021-06-16T14:43:05Z</time>
</trkpt>
<trkpt lat="49.0309041" lon="2.7332228">
<ele>113.29</ele>
<time>2021-06-16T14:43:41Z</time>
</trkpt>
<trkpt lat="49.0310853" lon="2.7331837">
<ele>112.86</ele>
<time>2021-06-16T14:43:46Z</time>
</trkpt>
<trkpt lat="49.0312651" lon="2.7331182">
<ele>114.06</ele>
<time>2021-06-16T14:43:50Z</time>
</trkpt>
<trkpt lat="49.0314952" lon="2.7330601">
<ele>112.96</ele>
<time>2021-06-16T14:43:54Z</time>
</trkpt>
<trkpt lat="49.0316886" lon="2.7330129">
<ele>112.40</ele>
<time>2021-06-16T14:44:04Z</time>
</trkpt>
<trkpt lat="49.0318446" lon="2.7328352">
<ele>111.80</ele>
<time>2021-06-16T14:44:12Z</time>
</trkpt>
<trkpt lat="49.0319233" lon="2.7325207">
<ele>111.39</ele>
<time>2021-06-16T14:44:17Z</time>
</trkpt>
<trkpt lat="49.0319231" lon="2.7322393">
<ele>108.77</ele>
<time>2021-06-16T14:44:25Z</time>
</trkpt>
<trkpt lat="49.0319577" lon="2.7319516">
<ele>110.14</ele>
<time>2021-06-16T14:44:33Z</time>
</trkpt>
<trkpt lat="49.0318608" lon="2.7317022">
<ele>109.08</ele>
<time>2021-06-16T14:44:40Z</time>
</trkpt>
<trkpt lat="49.0319673" lon="2.7313062">
<ele>110.14</ele>
<time>2021-06-16T14:44:55Z</time>
</trkpt>
<trkpt lat="49.0320187" lon="2.7309971">
<ele>109.23</ele>
<time>2021-06-16T14:45:01Z</time>
</trkpt>
<trkpt lat="49.0322036" lon="2.7308520">
<ele>112.24</ele>
<time>2021-06-16T14:45:07Z</time>
</trkpt>
<trkpt lat="49.0323326" lon="2.7306422">
<ele>114.24</ele>
<time>2021-06-16T14:45:15Z</time>
</trkpt>
<trkpt lat="49.0325081" lon="2.7305250">
<ele>115.17</ele>
<time>2021-06-16T14:45:21Z</time>
</trkpt>
<trkpt lat="49.0325335" lon="2.7302407">
<ele>113.06</ele>
<time>2021-06-16T14:45:26Z</time>
</trkpt>
<trkpt lat="49.0326277" lon="2.7299866">
<ele>111.69</ele>
<time>2021-06-16T14:45:35Z</time>
</trkpt>
<trkpt lat="49.0326541" lon="2.7297020">
<ele>112.60</ele>
<time>2021-06-16T14:45:40Z</time>
</trkpt>
<trkpt lat="49.0326835" lon="2.7293870">
<ele>114.21</ele>
<time>2021-06-16T14:45:45Z</time>
</trkpt>
<trkpt lat="49.0327713" lon="2.7291421">
<ele>117.73</ele>
<time>2021-06-16T14:45:51Z</time>
</trkpt>
<trkpt lat="49.0327926" lon="2.7288530">
<ele>114.34</ele>
<time>2021-06-16T14:45:56Z</time>
</trkpt>
<trkpt lat="49.0329866" lon="2.7287865">
<ele>115.35</ele>
<time>2021-06-16T14:46:02Z</time>
</trkpt>
<trkpt lat="49.0331213" lon="2.7285768">
<ele>117.05</ele>
<time>2021-06-16T14:46:10Z</time>
</trkpt>
<trkpt lat="49.0331537" lon="2.7282653">
<ele>119.01</ele>
<time>2021-06-16T14:46:16Z</time>
</trkpt>
<trkpt lat="49.0331547" lon="2.7279629">
<ele>118.99</ele>
<time>2021-06-16T14:46:31Z</time>
</trkpt>
<trkpt lat="49.0332921" lon="2.7277337">
<ele>125.42</ele>
<time>2021-06-16T14:46:39Z</time>
</trkpt>
<trkpt lat="49.0334818" lon="2.7277551">
<ele>124.16</ele>
<time>2021-06-16T14:46:49Z</time>
</trkpt>
<trkpt lat="49.0335915" lon="2.7275254">
<ele>126.27</ele>
<time>2021-06-16T14:46:56Z</time>
</trkpt>
<trkpt lat="49.0336939" lon="2.7272465">
<ele>126.08</ele>
<time>2021-06-16T14:47:04Z</time>
</trkpt>
<trkpt lat="49.0338972" lon="2.7271929">
<ele>125.51</ele>
<time>2021-06-16T14:47:14Z</time>
</trkpt>
<trkpt lat="49.0340966" lon="2.7272858">
<ele>126.92</ele>
<time>2021-06-16T14:47:20Z</time>
</trkpt>
<trkpt lat="49.0342792" lon="2.7273873">
<ele>126.91</ele>
<time>2021-06-16T14:47:24Z</time>
</trkpt>
<trkpt lat="49.0344692" lon="2.7274875">
<ele>125.71</ele>
<time>2021-06-16T14:47:28Z</time>
</trkpt>
<trkpt lat="49.0346491" lon="2.7276111">
<ele>126.22</ele>
<time>2021-06-16T14:47:34Z</time>
</trkpt>
<trkpt lat="49.0348499" lon="2.7277776">
<ele>123.25</ele>
<time>2021-06-16T14:47:38Z</time>
</trkpt>
<trkpt lat="49.0350294" lon="2.7279267">
<ele>122.93</ele>
<time>2021-06-16T14:47:46Z</time>
</trkpt>
<trkpt lat="49.0352069" lon="2.7280310">
<ele>122.68</ele>
<time>2021-06-16T14:47:49Z</time>
</trkpt>
<trkpt lat="49.0354521" lon="2.7282261">
<ele>121.92</ele>
<time>2021-06-16T14:47:52Z</time>
</trkpt>
<trkpt lat="49.0356150" lon="2.7283502">
<ele>120.14</ele>
<time>2021-06-16T14:47:56Z</time>
</trkpt>
<trkpt lat="49.0358878" lon="2.7286601">
<ele>118.79</ele>
<time>2021-06-16T14:48:01Z</time>
</trkpt>
<trkpt lat="49.0360763" lon="2.7288146">
<ele>120.28</ele>
<time>2021-06-16T14:48:08Z</time>
</trkpt>
<trkpt lat="49.0362619" lon="2.7289480">
<ele>120.83</ele>
<time>2021-06-16T14:48:13Z</time>
</trkpt>
<trkpt lat="49.0364606" lon="2.7290140">
<ele>122.46</ele>
<time>2021-06-16T14:48:20Z</time>
</trkpt>
<trkpt lat="49.0366650" lon="2.7290683">
<ele>125.16</ele>
<time>2021-06-16T14:48:24Z</time>
</trkpt>
<trkpt lat="49.0368465" lon="2.7291112">
<ele>127.47</ele>
<time>2021-06-16T14:48:30Z</time>
</trkpt>
<trkpt lat="49.0370479" lon="2.7291235">
<ele>125.41</ele>
<time>2021-06-16T14:48:36Z</time>
</trkpt>
<trkpt lat="49.0372565" lon="2.7291775">
<ele>129.97</ele>
<time>2021-06-16T14:48:44Z</time>
</trkpt>
<trkpt lat="49.0374567" lon="2.7292201">
<ele>130.90</ele>
<time>2021-06-16T14:48:49Z</time>
</trkpt>
<trkpt lat="49.0376798" lon="2.7292617">
<ele>125.02</ele>
<time>2021-06-16T14:48:55Z</time>
</trkpt>
<trkpt lat="49.0378700" lon="2.7292887">
<ele>119.63</ele>
<time>2021-06-16T14:48:59Z</time>
</trkpt>
<trkpt lat="49.0380535" lon="2.7292916">
<ele>117.75</ele>
<time>2021-06-16T14:49:03Z</time>
</trkpt>
<trkpt lat="49.0382331" lon="2.7293341">
<ele>117.06</ele>
<time>2021-06-16T14:49:09Z</time>
</trkpt>
<trkpt lat="49.0382282" lon="2.7296510">
<ele>115.34</ele>
<time>2021-06-16T14:49:14Z</time>
</trkpt>
<trkpt lat="49.0382088" lon="2.7299244">
<ele>114.04</ele>
<time>2021-06-16T14:49:17Z</time>
</trkpt>
<trkpt lat="49.0381996" lon="2.7302840">
<ele>113.51</ele>
<time>2021-06-16T14:49:21Z</time>
</trkpt>
<trkpt lat="49.0381910" lon="2.7305786">
<ele>114.09</ele>
<time>2021-06-16T14:49:24Z</time>
</trkpt>
<trkpt lat="49.0381905" lon="2.7308703">
<ele>114.11</ele>
<time>2021-06-16T14:49:27Z</time>
</trkpt>
<trkpt lat="49.0381864" lon="2.7311593">
<ele>113.87</ele>
<time>2021-06-16T14:49:30Z</time>
</trkpt>
<trkpt lat="49.0381754" lon="2.7314564">
<ele>113.20</ele>
<time>2021-06-16T14:49:33Z</time>
</trkpt>
<trkpt lat="49.0381643" lon="2.7317566">
<ele>113.10</ele>
<time>2021-06-16T14:49:36Z</time>
</trkpt>
<trkpt lat="49.0381544" lon="2.7320526">
<ele>113.47</ele>
<time>2021-06-16T14:49:39Z</time>
</trkpt>
<trkpt lat="49.0381425" lon="2.7323534">
<ele>112.85</ele>
<time>2021-06-16T14:49:42Z</time>
</trkpt>
<trkpt lat="49.0381341" lon="2.7326432">
<ele>112.25</ele>
<time>2021-06-16T14:49:45Z</time>
</trkpt>
<trkpt lat="49.0381265" lon="2.7329324">
<ele>112.10</ele>
<time>2021-06-16T14:49:48Z</time>
</trkpt>
<trkpt lat="49.0381149" lon="2.7332105">
<ele>111.74</ele>
<time>2021-06-16T14:49:51Z</time>
</trkpt>
<trkpt lat="49.0380909" lon="2.7335596">
<ele>110.91</ele>
<time>2021-06-16T14:49:55Z</time>
</trkpt>
<trkpt lat="49.0380863" lon="2.7339148">
<ele>110.99</ele>
<time>2021-06-16T14:49:59Z</time>
</trkpt>
<trkpt lat="49.0380752" lon="2.7342783">
<ele>111.57</ele>
<time>2021-06-16T14:50:03Z</time>
</trkpt>
<trkpt lat="49.0380661" lon="2.7346456">
<ele>112.06</ele>
<time>2021-06-16T14:50:07Z</time>
</trkpt>
<trkpt lat="49.0380536" lon="2.7349986">
<ele>112.72</ele>
<time>2021-06-16T14:50:11Z</time>
</trkpt>
<trkpt lat="49.0380431" lon="2.7353561">
<ele>113.50</ele>
<time>2021-06-16T14:50:15Z</time>
</trkpt>
<trkpt lat="49.0380360" lon="2.7356317">
<ele>114.36</ele>
<time>2021-06-16T14:50:18Z</time>
</trkpt>
<trkpt lat="49.0380325" lon="2.7359179">
<ele>115.27</ele>
<time>2021-06-16T14:50:21Z</time>
</trkpt>
<trkpt lat="49.0380133" lon="2.7362767">
<ele>116.35</ele>
<time>2021-06-16T14:50:25Z</time>
</trkpt>
<trkpt lat="49.0380064" lon="2.7366257">
<ele>117.53</ele>
<time>2021-06-16T14:50:29Z</time>
</trkpt>
<trkpt lat="49.0379939" lon="2.7369612">
<ele>117.77</ele>
<time>2021-06-16T14:50:33Z</time>
</trkpt>
<trkpt lat="49.0379860" lon="2.7372899">
<ele>118.28</ele>
<time>2021-06-16T14:50:37Z</time>
</trkpt>
<trkpt lat="49.0379728" lon="2.7376109">
<ele>118.28</ele>
<time>2021-06-16T14:50:41Z</time>
</trkpt>
<trkpt lat="49.0379604" lon="2.7379193">
<ele>118.97</ele>
<time>2021-06-16T14:50:45Z</time>
</trkpt>
<trkpt lat="49.0379374" lon="2.7382098">
<ele>117.67</ele>
<time>2021-06-16T14:50:49Z</time>
</trkpt>
<trkpt lat="49.0379242" lon="2.7385025">
<ele>117.55</ele>
<time>2021-06-16T14:50:53Z</time>
</trkpt>
<trkpt lat="49.0379086" lon="2.7387923">
<ele>118.33</ele>
<time>2021-06-16T14:50:57Z</time>
</trkpt>
<trkpt lat="49.0378155" lon="2.7390934">
<ele>118.17</ele>
<time>2021-06-16T14:51:02Z</time>
</trkpt>
<trkpt lat="49.0376377" lon="2.7392630">
<ele>117.58</ele>
<time>2021-06-16T14:51:07Z</time>
</trkpt>
<trkpt lat="49.0374500" lon="2.7393936">
<ele>118.81</ele>
<time>2021-06-16T14:51:11Z</time>
</trkpt>
<trkpt lat="49.0372888" lon="2.7395187">
<ele>118.44</ele>
<time>2021-06-16T14:51:15Z</time>
</trkpt>
<trkpt lat="49.0371213" lon="2.7396329">
<ele>120.60</ele>
<time>2021-06-16T14:51:19Z</time>
</trkpt>
<trkpt lat="49.0369242" lon="2.7397544">
<ele>121.96</ele>
<time>2021-06-16T14:51:23Z</time>
</trkpt>
<trkpt lat="49.0367668" lon="2.7399035">
<ele>123.75</ele>
<time>2021-06-16T14:51:27Z</time>
</trkpt>
<trkpt lat="49.0366039" lon="2.7400440">
<ele>125.34</ele>
<time>2021-06-16T14:51:31Z</time>
</trkpt>
<trkpt lat="49.0364383" lon="2.7401760">
<ele>127.43</ele>
<time>2021-06-16T14:51:35Z</time>
</trkpt>
<trkpt lat="49.0362787" lon="2.7403185">
<ele>129.20</ele>
<time>2021-06-16T14:51:39Z</time>
</trkpt>
<trkpt lat="49.0361073" lon="2.7404528">
<ele>129.37</ele>
<time>2021-06-16T14:51:44Z</time>
</trkpt>
</trkseg>
</trk>
</gpx>
